﻿<?xml version="1.0" encoding="utf-8"?><gpx creator="Garmin Desktop App" version="1.1" xsi:schemaLocation="http://www.topografix.com/GPX/1/1 http://www.topografix.com/GPX/1/1/gpx.xsd http://www.garmin.com/xmlschemas/WaypointExtension/v1 http://www8.garmin.com/xmlschemas/WaypointExtensionv1.xsd http://www.garmin.com/xmlschemas/TrackPointExtension/v1 http://www.garmin.com/xmlschemas/TrackPointExtensionv1.xsd http://www.garmin.com/xmlschemas/GpxExtensions/v3 http://www8.garmin.com/xmlschemas/GpxExtensionsv3.xsd http://www.garmin.com/xmlschemas/ActivityExtension/v1 http://www8.garmin.com/xmlschemas/ActivityExtensionv1.xsd http://www.garmin.com/xmlschemas/AdventuresExtensions/v1 http://www8.garmin.com/xmlschemas/AdventuresExtensionv1.xsd http://www.garmin.com/xmlschemas/PressureExtension/v1 http://www.garmin.com/xmlschemas/PressureExtensionv1.xsd http://www.garmin.com/xmlschemas/TripExtensions/v1 http://www.garmin.com/xmlschemas/TripExtensionsv1.xsd http://www.garmin.com/xmlschemas/TripMetaDataExtensions/v1 http://www.garmin.com/xmlschemas/TripMetaDataExtensionsv1.xsd http://www.garmin.com/xmlschemas/ViaPointTransportationModeExtensions/v1 http://www.garmin.com/xmlschemas/ViaPointTransportationModeExtensionsv1.xsd http://www.garmin.com/xmlschemas/CreationTimeExtension/v1 http://www.garmin.com/xmlschemas/CreationTimeExtensionsv1.xsd http://www.garmin.com/xmlschemas/AccelerationExtension/v1 http://www.garmin.com/xmlschemas/AccelerationExtensionv1.xsd http://www.garmin.com/xmlschemas/PowerExtension/v1 http://www.garmin.com/xmlschemas/PowerExtensionv1.xsd http://www.garmin.com/xmlschemas/VideoExtension/v1 http://www.garmin.com/xmlschemas/VideoExtensionv1.xsd" xmlns="http://www.topografix.com/GPX/1/1" xmlns:xsi="http://www.w3.org/2001/XMLSchema-instance" xmlns:wptx1="http://www.garmin.com/xmlschemas/WaypointExtension/v1" xmlns:gpxtrx="http://www.garmin.com/xmlschemas/GpxExtensions/v3" xmlns:gpxtpx="http://www.garmin.com/xmlschemas/TrackPointExtension/v1" xmlns:gpxx="http://www.garmin.com/xmlschemas/GpxExtensions/v3" xmlns:trp="http://www.garmin.com/xmlschemas/TripExtensions/v1" xmlns:adv="http://www.garmin.com/xmlschemas/AdventuresExtensions/v1" xmlns:prs="http://www.garmin.com/xmlschemas/PressureExtension/v1" xmlns:tmd="http://www.garmin.com/xmlschemas/TripMetaDataExtensions/v1" xmlns:vptm="http://www.garmin.com/xmlschemas/ViaPointTransportationModeExtensions/v1" xmlns:ctx="http://www.garmin.com/xmlschemas/CreationTimeExtension/v1" xmlns:gpxacc="http://www.garmin.com/xmlschemas/AccelerationExtension/v1" xmlns:gpxpx="http://www.garmin.com/xmlschemas/PowerExtension/v1" xmlns:vidx1="http://www.garmin.com/xmlschemas/VideoExtension/v1">

  <metadata>
    <link href="http://www.garmin.com">
      <text>Garmin International</text>
    </link>
    <time>2026-03-04T17:40:36Z</time>
    <bounds maxlat="52.330129975453019" maxlon="8.044759975746274" minlat="52.223419966176152" minlon="7.806170023977757" />
  </metadata>

  <trk>
    <name>20260304Westerkappeln</name>
    <extensions>
      <gpxx:TrackExtension>
        <gpxx:DisplayColor>DarkGray</gpxx:DisplayColor>
      </gpxx:TrackExtension>
    </extensions>
    <trkseg>
      <trkpt lat="52.276010038331151" lon="8.038579998537898">
        <ele>69</ele>
        <time>2026-01-19T20:05:25Z</time>
      </trkpt>
      <trkpt lat="52.275799987837672" lon="8.038819972425699">
        <ele>69</ele>
        <time>2026-01-19T20:05:31Z</time>
      </trkpt>
      <trkpt lat="52.275579962879419" lon="8.039060030132532">
        <ele>69</ele>
        <time>2026-01-19T20:05:38Z</time>
      </trkpt>
      <trkpt lat="52.275390028953552" lon="8.039220040664077">
        <ele>69</ele>
        <time>2026-01-19T20:05:44Z</time>
      </trkpt>
      <trkpt lat="52.275200011208653" lon="8.039330011233687">
        <ele>69</ele>
        <time>2026-01-19T20:05:50Z</time>
      </trkpt>
      <trkpt lat="52.274389984086156" lon="8.039739970117807">
        <ele>69</ele>
        <time>2026-01-19T20:06:12Z</time>
      </trkpt>
      <trkpt lat="52.273939959704876" lon="8.03995999507606">
        <ele>70</ele>
        <time>2026-01-19T20:06:25Z</time>
      </trkpt>
      <trkpt lat="52.273070001974702" lon="8.04025998339057">
        <ele>70</ele>
        <time>2026-01-19T20:06:49Z</time>
      </trkpt>
      <trkpt lat="52.272960031405091" lon="8.039650032296777">
        <ele>70</ele>
        <time>2026-01-19T20:06:59Z</time>
      </trkpt>
      <trkpt lat="52.272930024191737" lon="8.039179975166917">
        <ele>68</ele>
        <time>2026-01-19T20:07:07Z</time>
      </trkpt>
      <trkpt lat="52.272889958694577" lon="8.038630038499832">
        <ele>68</ele>
        <time>2026-01-19T20:07:16Z</time>
      </trkpt>
      <trkpt lat="52.272860035300255" lon="8.038270035758615">
        <ele>68</ele>
        <time>2026-01-19T20:07:22Z</time>
      </trkpt>
      <trkpt lat="52.272819969803095" lon="8.037950014695525">
        <ele>68</ele>
        <time>2026-01-19T20:07:27Z</time>
      </trkpt>
      <trkpt lat="52.272610003128648" lon="8.037829985842109">
        <ele>68</ele>
        <time>2026-01-19T20:07:34Z</time>
      </trkpt>
      <trkpt lat="52.272280007600784" lon="8.037780029699206">
        <ele>68</ele>
        <time>2026-01-19T20:07:43Z</time>
      </trkpt>
      <trkpt lat="52.272080015391111" lon="8.037750022485852">
        <ele>68</ele>
        <time>2026-01-19T20:07:49Z</time>
      </trkpt>
      <trkpt lat="52.271940037608147" lon="8.038010029122233">
        <ele>68</ele>
        <time>2026-01-19T20:07:54Z</time>
      </trkpt>
      <trkpt lat="52.271699979901314" lon="8.03811002522707">
        <ele>68</ele>
        <time>2026-01-19T20:08:01Z</time>
      </trkpt>
      <trkpt lat="52.271580034866929" lon="8.038370031863451">
        <ele>68</ele>
        <time>2026-01-19T20:08:07Z</time>
      </trkpt>
      <trkpt lat="52.271149959415197" lon="8.038979982957244">
        <ele>67</ele>
        <time>2026-01-19T20:08:22Z</time>
      </trkpt>
      <trkpt lat="52.270879978314042" lon="8.039360018447042">
        <ele>67</ele>
        <time>2026-01-19T20:08:32Z</time>
      </trkpt>
      <trkpt lat="52.270560041069984" lon="8.03982999175787">
        <ele>65</ele>
        <time>2026-01-19T20:08:43Z</time>
      </trkpt>
      <trkpt lat="52.270349990576506" lon="8.040129980072379">
        <ele>65</ele>
        <time>2026-01-19T20:08:51Z</time>
      </trkpt>
      <trkpt lat="52.269889991730452" lon="8.040779996663332">
        <ele>65</ele>
        <time>2026-01-19T20:09:07Z</time>
      </trkpt>
      <trkpt lat="52.269559996202588" lon="8.041239995509386">
        <ele>68</ele>
        <time>2026-01-19T20:09:18Z</time>
      </trkpt>
      <trkpt lat="52.268019989132881" lon="8.04341996088624">
        <ele>68</ele>
        <time>2026-01-19T20:10:13Z</time>
      </trkpt>
      <trkpt lat="52.267859978601336" lon="8.043649960309267">
        <ele>68</ele>
        <time>2026-01-19T20:10:19Z</time>
      </trkpt>
      <trkpt lat="52.267380030825734" lon="8.044339958578348">
        <ele>67</ele>
        <time>2026-01-19T20:10:36Z</time>
      </trkpt>
      <trkpt lat="52.267090016975999" lon="8.044759975746274">
        <ele>67</ele>
        <time>2026-01-19T20:10:46Z</time>
      </trkpt>
      <trkpt lat="52.26634000428021" lon="8.043400011956692">
        <ele>67</ele>
        <time>2026-01-19T20:11:16Z</time>
      </trkpt>
      <trkpt lat="52.26558999158442" lon="8.042039964348078">
        <ele>68</ele>
        <time>2026-01-19T20:11:46Z</time>
      </trkpt>
      <trkpt lat="52.264799997210503" lon="8.040619986131787">
        <ele>68</ele>
        <time>2026-01-19T20:12:17Z</time>
      </trkpt>
      <trkpt lat="52.264270009472966" lon="8.039680039510131">
        <ele>68</ele>
        <time>2026-01-19T20:12:38Z</time>
      </trkpt>
      <trkpt lat="52.264070017263293" lon="8.039409974589944">
        <ele>68</ele>
        <time>2026-01-19T20:12:45Z</time>
      </trkpt>
      <trkpt lat="52.26384999230504" lon="8.039369992911816">
        <ele>68</ele>
        <time>2026-01-19T20:12:51Z</time>
      </trkpt>
      <trkpt lat="52.262820024043322" lon="8.039209982380271">
        <ele>68</ele>
        <time>2026-01-19T20:13:19Z</time>
      </trkpt>
      <trkpt lat="52.262599999085069" lon="8.039300004020333">
        <ele>72</ele>
        <time>2026-01-19T20:13:25Z</time>
      </trkpt>
      <trkpt lat="52.262070011347532" lon="8.03950997069478">
        <ele>72</ele>
        <time>2026-01-19T20:13:39Z</time>
      </trkpt>
      <trkpt lat="52.261689975857735" lon="8.039650032296777">
        <ele>78</ele>
        <time>2026-01-19T20:13:50Z</time>
      </trkpt>
      <trkpt lat="52.26157003082335" lon="8.03940000012517">
        <ele>78</ele>
        <time>2026-01-19T20:13:56Z</time>
      </trkpt>
      <trkpt lat="52.261519990861416" lon="8.038719976320863">
        <ele>78</ele>
        <time>2026-01-19T20:14:07Z</time>
      </trkpt>
      <trkpt lat="52.261489983648062" lon="8.038370031863451">
        <ele>75</ele>
        <time>2026-01-19T20:14:13Z</time>
      </trkpt>
      <trkpt lat="52.261380013078451" lon="8.037560004740953">
        <ele>75</ele>
        <time>2026-01-19T20:14:26Z</time>
      </trkpt>
      <trkpt lat="52.261220002546906" lon="8.036380000412464">
        <ele>73</ele>
        <time>2026-01-19T20:14:46Z</time>
      </trkpt>
      <trkpt lat="52.261159988120198" lon="8.035999964922667">
        <ele>73</ele>
        <time>2026-01-19T20:14:52Z</time>
      </trkpt>
      <trkpt lat="52.261080024763942" lon="8.035569973289967">
        <ele>73</ele>
        <time>2026-01-19T20:15:00Z</time>
      </trkpt>
      <trkpt lat="52.261020010337234" lon="8.035209970548749">
        <ele>71</ele>
        <time>2026-01-19T20:15:06Z</time>
      </trkpt>
      <trkpt lat="52.260850025340915" lon="8.034449983388186">
        <ele>71</ele>
        <time>2026-01-19T20:15:19Z</time>
      </trkpt>
      <trkpt lat="52.260249964892864" lon="8.034460041671991">
        <ele>71</ele>
        <time>2026-01-19T20:15:35Z</time>
      </trkpt>
      <trkpt lat="52.259619981050491" lon="8.034489965066314">
        <ele>71</ele>
        <time>2026-01-19T20:15:52Z</time>
      </trkpt>
      <trkpt lat="52.258639968931675" lon="8.034540005028248">
        <ele>73</ele>
        <time>2026-01-19T20:16:18Z</time>
      </trkpt>
      <trkpt lat="52.258430002257228" lon="8.034540005028248">
        <ele>76</ele>
        <time>2026-01-19T20:16:24Z</time>
      </trkpt>
      <trkpt lat="52.25804996676743" lon="8.034549979493022">
        <ele>76</ele>
        <time>2026-01-19T20:16:34Z</time>
      </trkpt>
      <trkpt lat="52.257600026205182" lon="8.034560037776828">
        <ele>76</ele>
        <time>2026-01-19T20:16:46Z</time>
      </trkpt>
      <trkpt lat="52.257280005142093" lon="8.034570012241602">
        <ele>78</ele>
        <time>2026-01-19T20:16:55Z</time>
      </trkpt>
      <trkpt lat="52.257089987397194" lon="8.034579986706376">
        <ele>78</ele>
        <time>2026-01-19T20:17:00Z</time>
      </trkpt>
      <trkpt lat="52.256910027936101" lon="8.03458996117115">
        <ele>78</ele>
        <time>2026-01-19T20:17:04Z</time>
      </trkpt>
      <trkpt lat="52.256420021876693" lon="8.03460999391973">
        <ele>80</ele>
        <time>2026-01-19T20:17:18Z</time>
      </trkpt>
      <trkpt lat="52.25579003803432" lon="8.034619968384504">
        <ele>80</ele>
        <time>2026-01-19T20:17:34Z</time>
      </trkpt>
      <trkpt lat="52.255589962005615" lon="8.03463002666831">
        <ele>83</ele>
        <time>2026-01-19T20:17:40Z</time>
      </trkpt>
      <trkpt lat="52.254929970949888" lon="8.034649975597858">
        <ele>83</ele>
        <time>2026-01-19T20:17:57Z</time>
      </trkpt>
      <trkpt lat="52.253809981048107" lon="8.034660033881664">
        <ele>85</ele>
        <time>2026-01-19T20:18:27Z</time>
      </trkpt>
      <trkpt lat="52.253270018845797" lon="8.034379994496703">
        <ele>87</ele>
        <time>2026-01-19T20:18:42Z</time>
      </trkpt>
      <trkpt lat="52.25231003947556" lon="8.033780017867684">
        <ele>88</ele>
        <time>2026-01-19T20:19:10Z</time>
      </trkpt>
      <trkpt lat="52.251340001821518" lon="8.03319001570344">
        <ele>87</ele>
        <time>2026-01-19T20:19:38Z</time>
      </trkpt>
      <trkpt lat="52.250919984653592" lon="8.032809980213642">
        <ele>87</ele>
        <time>2026-01-19T20:19:50Z</time>
      </trkpt>
      <trkpt lat="52.249929998070002" lon="8.03190004080534">
        <ele>89</ele>
        <time>2026-01-19T20:20:21Z</time>
      </trkpt>
      <trkpt lat="52.24870003759861" lon="8.030749959871173">
        <ele>93</ele>
        <time>2026-01-19T20:20:59Z</time>
      </trkpt>
      <trkpt lat="52.247909959405661" lon="8.029970023781061">
        <ele>97</ele>
        <time>2026-01-19T20:21:23Z</time>
      </trkpt>
      <trkpt lat="52.247469993308187" lon="8.029320007190108">
        <ele>98</ele>
        <time>2026-01-19T20:21:39Z</time>
      </trkpt>
      <trkpt lat="52.247300008311868" lon="8.029090007767081">
        <ele>98</ele>
        <time>2026-01-19T20:21:45Z</time>
      </trkpt>
      <trkpt lat="52.24678996950388" lon="8.028530012816191">
        <ele>98</ele>
        <time>2026-01-19T20:22:01Z</time>
      </trkpt>
      <trkpt lat="52.246470032259822" lon="8.028209991753101">
        <ele>98</ele>
        <time>2026-01-19T20:22:11Z</time>
      </trkpt>
      <trkpt lat="52.245999975129962" lon="8.027749992907047">
        <ele>98</ele>
        <time>2026-01-19T20:22:26Z</time>
      </trkpt>
      <trkpt lat="52.24562999792397" lon="8.027419997379184">
        <ele>104</ele>
        <time>2026-01-19T20:22:37Z</time>
      </trkpt>
      <trkpt lat="52.245349958539009" lon="8.027259986847639">
        <ele>104</ele>
        <time>2026-01-19T20:22:45Z</time>
      </trkpt>
      <trkpt lat="52.245079977437854" lon="8.027199972420931">
        <ele>104</ele>
        <time>2026-01-19T20:22:53Z</time>
      </trkpt>
      <trkpt lat="52.244789963588119" lon="8.027140041813254">
        <ele>101</ele>
        <time>2026-01-19T20:23:00Z</time>
      </trkpt>
      <trkpt lat="52.244519982486963" lon="8.027059994637966">
        <ele>101</ele>
        <time>2026-01-19T20:23:08Z</time>
      </trkpt>
      <trkpt lat="52.243650024756789" lon="8.02666001021862">
        <ele>96</ele>
        <time>2026-01-19T20:23:32Z</time>
      </trkpt>
      <trkpt lat="52.243520021438599" lon="8.0271100345999">
        <ele>96</ele>
        <time>2026-01-19T20:23:40Z</time>
      </trkpt>
      <trkpt lat="52.243360010907054" lon="8.027640022337437">
        <ele>95</ele>
        <time>2026-01-19T20:23:50Z</time>
      </trkpt>
      <trkpt lat="52.243260014802217" lon="8.027979992330074">
        <ele>95</ele>
        <time>2026-01-19T20:23:56Z</time>
      </trkpt>
      <trkpt lat="52.243160018697381" lon="8.028319962322712">
        <ele>95</ele>
        <time>2026-01-19T20:24:02Z</time>
      </trkpt>
      <trkpt lat="52.242900012061" lon="8.029229985550046">
        <ele>95</ele>
        <time>2026-01-19T20:24:18Z</time>
      </trkpt>
      <trkpt lat="52.242809990420938" lon="8.029519999399781">
        <ele>95</ele>
        <time>2026-01-19T20:24:24Z</time>
      </trkpt>
      <trkpt lat="52.242740001529455" lon="8.029810013249517">
        <ele>95</ele>
        <time>2026-01-19T20:24:29Z</time>
      </trkpt>
      <trkpt lat="52.24257999099791" lon="8.030379982665181">
        <ele>96</ele>
        <time>2026-01-19T20:24:39Z</time>
      </trkpt>
      <trkpt lat="52.242379998788238" lon="8.031069980934262">
        <ele>96</ele>
        <time>2026-01-19T20:24:52Z</time>
      </trkpt>
      <trkpt lat="52.242219988256693" lon="8.031610026955605">
        <ele>96</ele>
        <time>2026-01-19T20:25:01Z</time>
      </trkpt>
      <trkpt lat="52.241889992728829" lon="8.032749965786934">
        <ele>94</ele>
        <time>2026-01-19T20:25:22Z</time>
      </trkpt>
      <trkpt lat="52.241420019418001" lon="8.032349981367588">
        <ele>94</ele>
        <time>2026-01-19T20:25:36Z</time>
      </trkpt>
      <trkpt lat="52.241169987246394" lon="8.032140014693141">
        <ele>94</ele>
        <time>2026-01-19T20:25:44Z</time>
      </trkpt>
      <trkpt lat="52.241000002250075" lon="8.03201001137495">
        <ele>94</ele>
        <time>2026-01-19T20:25:49Z</time>
      </trkpt>
      <trkpt lat="52.240660032257438" lon="8.031729971989989">
        <ele>94</ele>
        <time>2026-01-19T20:25:59Z</time>
      </trkpt>
      <trkpt lat="52.240410000085831" lon="8.031510030850768">
        <ele>94</ele>
        <time>2026-01-19T20:26:07Z</time>
      </trkpt>
      <trkpt lat="52.240119986236095" lon="8.031269973143935">
        <ele>94</ele>
        <time>2026-01-19T20:26:15Z</time>
      </trkpt>
      <trkpt lat="52.239840030670166" lon="8.031039973720908">
        <ele>94</ele>
        <time>2026-01-19T20:26:24Z</time>
      </trkpt>
      <trkpt lat="52.238460034132004" lon="8.029900034889579">
        <ele>94</ele>
        <time>2026-01-19T20:27:05Z</time>
      </trkpt>
      <trkpt lat="52.237759977579117" lon="8.029310032725334">
        <ele>92</ele>
        <time>2026-01-19T20:27:26Z</time>
      </trkpt>
      <trkpt lat="52.237510029226542" lon="8.029060000553727">
        <ele>91</ele>
        <time>2026-01-19T20:27:34Z</time>
      </trkpt>
      <trkpt lat="52.237259997054935" lon="8.028779961168766">
        <ele>91</ele>
        <time>2026-01-19T20:27:42Z</time>
      </trkpt>
      <trkpt lat="52.236980041489005" lon="8.028400009498">
        <ele>91</ele>
        <time>2026-01-19T20:27:52Z</time>
      </trkpt>
      <trkpt lat="52.236769990995526" lon="8.028119970113039">
        <ele>92</ele>
        <time>2026-01-19T20:27:59Z</time>
      </trkpt>
      <trkpt lat="52.236639987677336" lon="8.027780000120401">
        <ele>92</ele>
        <time>2026-01-19T20:28:06Z</time>
      </trkpt>
      <trkpt lat="52.236400013789535" lon="8.027210030704737">
        <ele>92</ele>
        <time>2026-01-19T20:28:17Z</time>
      </trkpt>
      <trkpt lat="52.23666999489069" lon="8.026750031858683">
        <ele>93</ele>
        <time>2026-01-19T20:28:29Z</time>
      </trkpt>
      <trkpt lat="52.236130032688379" lon="8.023760039359331">
        <ele>93</ele>
        <time>2026-01-19T20:29:20Z</time>
      </trkpt>
      <trkpt lat="52.23594001494348" lon="8.022790001705289">
        <ele>93</ele>
        <time>2026-01-19T20:29:37Z</time>
      </trkpt>
      <trkpt lat="52.235629968345165" lon="8.021210012957454">
        <ele>92</ele>
        <time>2026-01-19T20:30:04Z</time>
      </trkpt>
      <trkpt lat="52.235389994457364" lon="8.02000000141561">
        <ele>85</ele>
        <time>2026-01-19T20:30:25Z</time>
      </trkpt>
      <trkpt lat="52.235350012779236" lon="8.01941997371614">
        <ele>81</ele>
        <time>2026-01-19T20:30:34Z</time>
      </trkpt>
      <trkpt lat="52.235340038314462" lon="8.018940025940538">
        <ele>81</ele>
        <time>2026-01-19T20:30:42Z</time>
      </trkpt>
      <trkpt lat="52.235350012779236" lon="8.018499976024032">
        <ele>81</ele>
        <time>2026-01-19T20:30:49Z</time>
      </trkpt>
      <trkpt lat="52.23538001999259" lon="8.017830010503531">
        <ele>76</ele>
        <time>2026-01-19T20:31:00Z</time>
      </trkpt>
      <trkpt lat="52.235489990562201" lon="8.016520002856851">
        <ele>76</ele>
        <time>2026-01-19T20:31:22Z</time>
      </trkpt>
      <trkpt lat="52.235510023310781" lon="8.016160000115633">
        <ele>76</ele>
        <time>2026-01-19T20:31:28Z</time>
      </trkpt>
      <trkpt lat="52.235499965026975" lon="8.015790022909641">
        <ele>76</ele>
        <time>2026-01-19T20:31:34Z</time>
      </trkpt>
      <trkpt lat="52.235429976135492" lon="8.015349972993136">
        <ele>76</ele>
        <time>2026-01-19T20:31:41Z</time>
      </trkpt>
      <trkpt lat="52.235589986667037" lon="8.015160039067268">
        <ele>75</ele>
        <time>2026-01-19T20:31:48Z</time>
      </trkpt>
      <trkpt lat="52.235780004411936" lon="8.015049984678626">
        <ele>75</ele>
        <time>2026-01-19T20:31:53Z</time>
      </trkpt>
      <trkpt lat="52.236309992149472" lon="8.014700040221214">
        <ele>75</ele>
        <time>2026-01-19T20:32:08Z</time>
      </trkpt>
      <trkpt lat="52.23682003095746" lon="8.014329979196191">
        <ele>74</ele>
        <time>2026-01-19T20:32:23Z</time>
      </trkpt>
      <trkpt lat="52.237269971519709" lon="8.014050023630261">
        <ele>74</ele>
        <time>2026-01-19T20:32:36Z</time>
      </trkpt>
      <trkpt lat="52.237689988687634" lon="8.013829998672009">
        <ele>76</ele>
        <time>2026-01-19T20:32:48Z</time>
      </trkpt>
      <trkpt lat="52.238189969211817" lon="8.013650039210916">
        <ele>76</ele>
        <time>2026-01-19T20:33:02Z</time>
      </trkpt>
      <trkpt lat="52.238769996911287" lon="8.013249970972538">
        <ele>75</ele>
        <time>2026-01-19T20:33:19Z</time>
      </trkpt>
      <trkpt lat="52.239480027928948" lon="8.012749990448356">
        <ele>72</ele>
        <time>2026-01-19T20:33:39Z</time>
      </trkpt>
      <trkpt lat="52.239899961277843" lon="8.012380013242364">
        <ele>72</ele>
        <time>2026-01-19T20:33:52Z</time>
      </trkpt>
      <trkpt lat="52.240349985659122" lon="8.011850025504828">
        <ele>72</ele>
        <time>2026-01-19T20:34:07Z</time>
      </trkpt>
      <trkpt lat="52.240819958969951" lon="8.011360019445419">
        <ele>72</ele>
        <time>2026-01-19T20:34:22Z</time>
      </trkpt>
      <trkpt lat="52.241329997777939" lon="8.01103999838233">
        <ele>72</ele>
        <time>2026-01-19T20:34:36Z</time>
      </trkpt>
      <trkpt lat="52.241859985515475" lon="8.010809998959303">
        <ele>72</ele>
        <time>2026-01-19T20:34:51Z</time>
      </trkpt>
      <trkpt lat="52.242719968780875" lon="8.010529959574342">
        <ele>72</ele>
        <time>2026-01-19T20:35:14Z</time>
      </trkpt>
      <trkpt lat="52.243399992585182" lon="8.010240029543638">
        <ele>74</ele>
        <time>2026-01-19T20:35:33Z</time>
      </trkpt>
      <trkpt lat="52.243880024179816" lon="8.009859994053841">
        <ele>74</ele>
        <time>2026-01-19T20:35:47Z</time>
      </trkpt>
      <trkpt lat="52.2441899869591" lon="8.009499991312623">
        <ele>74</ele>
        <time>2026-01-19T20:35:58Z</time>
      </trkpt>
      <trkpt lat="52.244429960846901" lon="8.009309973567724">
        <ele>74</ele>
        <time>2026-01-19T20:36:05Z</time>
      </trkpt>
      <trkpt lat="52.244849978014827" lon="8.009120039641857">
        <ele>74</ele>
        <time>2026-01-19T20:36:16Z</time>
      </trkpt>
      <trkpt lat="52.245420031249523" lon="8.008949970826507">
        <ele>73</ele>
        <time>2026-01-19T20:36:32Z</time>
      </trkpt>
      <trkpt lat="52.245599990710616" lon="8.008830025792122">
        <ele>73</ele>
        <time>2026-01-19T20:36:37Z</time>
      </trkpt>
      <trkpt lat="52.245869971811771" lon="8.008389975875616">
        <ele>73</ele>
        <time>2026-01-19T20:36:47Z</time>
      </trkpt>
      <trkpt lat="52.245149966329336" lon="8.007350033149123">
        <ele>73</ele>
        <time>2026-01-19T20:37:13Z</time>
      </trkpt>
      <trkpt lat="52.245030021294951" lon="8.007120033726096">
        <ele>74</ele>
        <time>2026-01-19T20:37:18Z</time>
      </trkpt>
      <trkpt lat="52.245009988546371" lon="8.006819961592555">
        <ele>74</ele>
        <time>2026-01-19T20:37:23Z</time>
      </trkpt>
      <trkpt lat="52.2450499702245" lon="8.006410002708435">
        <ele>74</ele>
        <time>2026-01-19T20:37:30Z</time>
      </trkpt>
      <trkpt lat="52.24509003572166" lon="8.005970036610961">
        <ele>74</ele>
        <time>2026-01-19T20:37:37Z</time>
      </trkpt>
      <trkpt lat="52.245109984651208" lon="8.005629982799292">
        <ele>74</ele>
        <time>2026-01-19T20:37:43Z</time>
      </trkpt>
      <trkpt lat="52.245100010186434" lon="8.005209965631366">
        <ele>75</ele>
        <time>2026-01-19T20:37:49Z</time>
      </trkpt>
      <trkpt lat="52.245060028508306" lon="8.003959972411394">
        <ele>78</ele>
        <time>2026-01-19T20:38:10Z</time>
      </trkpt>
      <trkpt lat="52.244840003550053" lon="8.003870034590364">
        <ele>78</ele>
        <time>2026-01-19T20:38:16Z</time>
      </trkpt>
      <trkpt lat="52.244789963588119" lon="8.00296001136303">
        <ele>78</ele>
        <time>2026-01-19T20:38:31Z</time>
      </trkpt>
      <trkpt lat="52.244819970801473" lon="8.002479979768395">
        <ele>73</ele>
        <time>2026-01-19T20:38:39Z</time>
      </trkpt>
      <trkpt lat="52.244879985228181" lon="8.001959966495633">
        <ele>73</ele>
        <time>2026-01-19T20:38:48Z</time>
      </trkpt>
      <trkpt lat="52.244930025190115" lon="8.001389997079969">
        <ele>73</ele>
        <time>2026-01-19T20:38:57Z</time>
      </trkpt>
      <trkpt lat="52.244949974119663" lon="8.000430017709732">
        <ele>70</ele>
        <time>2026-01-19T20:39:13Z</time>
      </trkpt>
      <trkpt lat="52.245039995759726" lon="7.999959960579872">
        <ele>70</ele>
        <time>2026-01-19T20:39:21Z</time>
      </trkpt>
      <trkpt lat="52.245139991864562" lon="7.999489987269044">
        <ele>70</ele>
        <time>2026-01-19T20:39:29Z</time>
      </trkpt>
      <trkpt lat="52.245109984651208" lon="7.998829996213317">
        <ele>70</ele>
        <time>2026-01-19T20:39:40Z</time>
      </trkpt>
      <trkpt lat="52.245009988546371" lon="7.997629959136248">
        <ele>70</ele>
        <time>2026-01-19T20:40:00Z</time>
      </trkpt>
      <trkpt lat="52.244949974119663" lon="7.996929986402392">
        <ele>70</ele>
        <time>2026-01-19T20:40:11Z</time>
      </trkpt>
      <trkpt lat="52.244800021871924" lon="7.995389979332686">
        <ele>71</ele>
        <time>2026-01-19T20:40:37Z</time>
      </trkpt>
      <trkpt lat="52.244689967483282" lon="7.994309971109033">
        <ele>72</ele>
        <time>2026-01-19T20:40:55Z</time>
      </trkpt>
      <trkpt lat="52.244649985805154" lon="7.993900012224913">
        <ele>72</ele>
        <time>2026-01-19T20:41:02Z</time>
      </trkpt>
      <trkpt lat="52.244470026344061" lon="7.992179961875081">
        <ele>72</ele>
        <time>2026-01-19T20:41:30Z</time>
      </trkpt>
      <trkpt lat="52.244349997490644" lon="7.990970034152269">
        <ele>72</ele>
        <time>2026-01-19T20:41:50Z</time>
      </trkpt>
      <trkpt lat="52.244300041347742" lon="7.990559991449118">
        <ele>72</ele>
        <time>2026-01-19T20:41:57Z</time>
      </trkpt>
      <trkpt lat="52.244219994172454" lon="7.989720040932298">
        <ele>71</ele>
        <time>2026-01-19T20:42:11Z</time>
      </trkpt>
      <trkpt lat="52.244150005280972" lon="7.989029958844185">
        <ele>71</ele>
        <time>2026-01-19T20:42:22Z</time>
      </trkpt>
      <trkpt lat="52.243950013071299" lon="7.98704001121223">
        <ele>71</ele>
        <time>2026-01-19T20:42:55Z</time>
      </trkpt>
      <trkpt lat="52.243899973109365" lon="7.98671999014914">
        <ele>70</ele>
        <time>2026-01-19T20:43:01Z</time>
      </trkpt>
      <trkpt lat="52.243810035288334" lon="7.986440034583211">
        <ele>70</ele>
        <time>2026-01-19T20:43:06Z</time>
      </trkpt>
      <trkpt lat="52.243509963154793" lon="7.985809966921806">
        <ele>70</ele>
        <time>2026-01-19T20:43:19Z</time>
      </trkpt>
      <trkpt lat="52.242900012061" lon="7.984710009768605">
        <ele>71</ele>
        <time>2026-01-19T20:43:43Z</time>
      </trkpt>
      <trkpt lat="52.242719968780875" lon="7.984319999814034">
        <ele>72</ele>
        <time>2026-01-19T20:43:51Z</time>
      </trkpt>
      <trkpt lat="52.242540009319782" lon="7.984029985964298">
        <ele>72</ele>
        <time>2026-01-19T20:43:58Z</time>
      </trkpt>
      <trkpt lat="52.242310009896755" lon="7.983939964324236">
        <ele>72</ele>
        <time>2026-01-19T20:44:04Z</time>
      </trkpt>
      <trkpt lat="52.240819958969951" lon="7.983780037611723">
        <ele>70</ele>
        <time>2026-01-19T20:44:44Z</time>
      </trkpt>
      <trkpt lat="52.240449981763959" lon="7.984020011499524">
        <ele>70</ele>
        <time>2026-01-19T20:44:55Z</time>
      </trkpt>
      <trkpt lat="52.240029964596033" lon="7.984489984810352">
        <ele>71</ele>
        <time>2026-01-19T20:45:09Z</time>
      </trkpt>
      <trkpt lat="52.239669961854815" lon="7.984680002555251">
        <ele>71</ele>
        <time>2026-01-19T20:45:19Z</time>
      </trkpt>
      <trkpt lat="52.239510035142303" lon="7.985149975866079">
        <ele>71</ele>
        <time>2026-01-19T20:45:28Z</time>
      </trkpt>
      <trkpt lat="52.239280035719275" lon="7.985449964180589">
        <ele>72</ele>
        <time>2026-01-19T20:45:36Z</time>
      </trkpt>
      <trkpt lat="52.239109966903925" lon="7.985579967498779">
        <ele>72</ele>
        <time>2026-01-19T20:45:41Z</time>
      </trkpt>
      <trkpt lat="52.238360038027167" lon="7.984889969229698">
        <ele>72</ele>
        <time>2026-01-19T20:46:04Z</time>
      </trkpt>
      <trkpt lat="52.237569959834218" lon="7.984110033139586">
        <ele>72</ele>
        <time>2026-01-19T20:46:29Z</time>
      </trkpt>
      <trkpt lat="52.236379981040955" lon="7.982860039919615">
        <ele>72</ele>
        <time>2026-01-19T20:47:07Z</time>
      </trkpt>
      <trkpt lat="52.236089967191219" lon="7.982559967786074">
        <ele>71</ele>
        <time>2026-01-19T20:47:16Z</time>
      </trkpt>
      <trkpt lat="52.235759971663356" lon="7.982370033860207">
        <ele>71</ele>
        <time>2026-01-19T20:47:25Z</time>
      </trkpt>
      <trkpt lat="52.235329980030656" lon="7.982180016115308">
        <ele>71</ele>
        <time>2026-01-19T20:47:37Z</time>
      </trkpt>
      <trkpt lat="52.23450000397861" lon="7.98182001337409">
        <ele>73</ele>
        <time>2026-01-19T20:48:00Z</time>
      </trkpt>
      <trkpt lat="52.233450002968311" lon="7.98136998899281">
        <ele>77</ele>
        <time>2026-01-19T20:48:29Z</time>
      </trkpt>
      <trkpt lat="52.23273997195065" lon="7.981599988415837">
        <ele>78</ele>
        <time>2026-01-19T20:48:49Z</time>
      </trkpt>
      <trkpt lat="52.232400001958013" lon="7.981920009478927">
        <ele>79</ele>
        <time>2026-01-19T20:48:59Z</time>
      </trkpt>
      <trkpt lat="52.232190035283566" lon="7.981980023905635">
        <ele>79</ele>
        <time>2026-01-19T20:49:05Z</time>
      </trkpt>
      <trkpt lat="52.232590019702911" lon="7.979910029098392">
        <ele>79</ele>
        <time>2026-01-19T20:49:42Z</time>
      </trkpt>
      <trkpt lat="52.232680041342974" lon="7.979560000821948">
        <ele>81</ele>
        <time>2026-01-19T20:49:48Z</time>
      </trkpt>
      <trkpt lat="52.233020011335611" lon="7.978140022605658">
        <ele>83</ele>
        <time>2026-01-19T20:50:13Z</time>
      </trkpt>
      <trkpt lat="52.232490023598075" lon="7.976849963888526">
        <ele>85</ele>
        <time>2026-01-19T20:50:39Z</time>
      </trkpt>
      <trkpt lat="52.231710003688931" lon="7.974860016256571">
        <ele>87</ele>
        <time>2026-01-19T20:51:18Z</time>
      </trkpt>
      <trkpt lat="52.231519985944033" lon="7.974570002406836">
        <ele>87</ele>
        <time>2026-01-19T20:51:24Z</time>
      </trkpt>
      <trkpt lat="52.231930028647184" lon="7.972720032557845">
        <ele>93</ele>
        <time>2026-01-19T20:51:57Z</time>
      </trkpt>
      <trkpt lat="52.232460016384721" lon="7.970799989998341">
        <ele>91</ele>
        <time>2026-01-19T20:52:31Z</time>
      </trkpt>
      <trkpt lat="52.232590019702911" lon="7.969840010628104">
        <ele>92</ele>
        <time>2026-01-19T20:52:47Z</time>
      </trkpt>
      <trkpt lat="52.232709964737296" lon="7.968579959124327">
        <ele>92</ele>
        <time>2026-01-19T20:53:08Z</time>
      </trkpt>
      <trkpt lat="52.232750030234456" lon="7.968160025775433">
        <ele>103</ele>
        <time>2026-01-19T20:53:15Z</time>
      </trkpt>
      <trkpt lat="52.232839968055487" lon="7.967470027506352">
        <ele>103</ele>
        <time>2026-01-19T20:53:27Z</time>
      </trkpt>
      <trkpt lat="52.232880033552647" lon="7.967180013656616">
        <ele>103</ele>
        <time>2026-01-19T20:53:31Z</time>
      </trkpt>
      <trkpt lat="52.232920015230775" lon="7.966000009328127">
        <ele>115</ele>
        <time>2026-01-19T20:53:51Z</time>
      </trkpt>
      <trkpt lat="52.232910040766001" lon="7.965329959988594">
        <ele>115</ele>
        <time>2026-01-19T20:54:02Z</time>
      </trkpt>
      <trkpt lat="52.232880033552647" lon="7.964690001681447">
        <ele>112</ele>
        <time>2026-01-19T20:54:12Z</time>
      </trkpt>
      <trkpt lat="52.232790011912584" lon="7.964020036160946">
        <ele>112</ele>
        <time>2026-01-19T20:54:24Z</time>
      </trkpt>
      <trkpt lat="52.23263000138104" lon="7.963259965181351">
        <ele>108</ele>
        <time>2026-01-19T20:54:37Z</time>
      </trkpt>
      <trkpt lat="52.232479965314269" lon="7.962550017982721">
        <ele>108</ele>
        <time>2026-01-19T20:54:49Z</time>
      </trkpt>
      <trkpt lat="52.232349961996078" lon="7.962009971961379">
        <ele>109</ele>
        <time>2026-01-19T20:54:58Z</time>
      </trkpt>
      <trkpt lat="52.232170002534986" lon="7.961149988695979">
        <ele>109</ele>
        <time>2026-01-19T20:55:13Z</time>
      </trkpt>
      <trkpt lat="52.23220000974834" lon="7.960689989849925">
        <ele>109</ele>
        <time>2026-01-19T20:55:21Z</time>
      </trkpt>
      <trkpt lat="52.232090039178729" lon="7.960429983213544">
        <ele>111</ele>
        <time>2026-01-19T20:55:27Z</time>
      </trkpt>
      <trkpt lat="52.23220000974834" lon="7.959799999371171">
        <ele>111</ele>
        <time>2026-01-19T20:55:37Z</time>
      </trkpt>
      <trkpt lat="52.232579961419106" lon="7.959100026637316">
        <ele>112</ele>
        <time>2026-01-19T20:55:53Z</time>
      </trkpt>
      <trkpt lat="52.232769979164004" lon="7.958759972825646">
        <ele>112</ele>
        <time>2026-01-19T20:56:00Z</time>
      </trkpt>
      <trkpt lat="52.23308002576232" lon="7.958180028945208">
        <ele>108</ele>
        <time>2026-01-19T20:56:13Z</time>
      </trkpt>
      <trkpt lat="52.233359981328249" lon="7.957690022885799">
        <ele>108</ele>
        <time>2026-01-19T20:56:24Z</time>
      </trkpt>
      <trkpt lat="52.233700035139918" lon="7.957079987972975">
        <ele>108</ele>
        <time>2026-01-19T20:56:37Z</time>
      </trkpt>
      <trkpt lat="52.233440028503537" lon="7.956610014662147">
        <ele>100</ele>
        <time>2026-01-19T20:56:48Z</time>
      </trkpt>
      <trkpt lat="52.23321002908051" lon="7.956159990280867">
        <ele>100</ele>
        <time>2026-01-19T20:56:57Z</time>
      </trkpt>
      <trkpt lat="52.232959996908903" lon="7.955720024183393">
        <ele>99</ele>
        <time>2026-01-19T20:57:07Z</time>
      </trkpt>
      <trkpt lat="52.232360020279884" lon="7.954570027068257">
        <ele>102</ele>
        <time>2026-01-19T20:57:32Z</time>
      </trkpt>
      <trkpt lat="52.232070006430149" lon="7.953969966620207">
        <ele>102</ele>
        <time>2026-01-19T20:57:44Z</time>
      </trkpt>
      <trkpt lat="52.231689970940351" lon="7.953179972246289">
        <ele>105</ele>
        <time>2026-01-19T20:58:01Z</time>
      </trkpt>
      <trkpt lat="52.230939958244562" lon="7.951790001243353">
        <ele>103</ele>
        <time>2026-01-19T20:58:31Z</time>
      </trkpt>
      <trkpt lat="52.23089000210166" lon="7.951520020142198">
        <ele>103</ele>
        <time>2026-01-19T20:58:37Z</time>
      </trkpt>
      <trkpt lat="52.231059987097979" lon="7.951239980757237">
        <ele>103</ele>
        <time>2026-01-19T20:58:43Z</time>
      </trkpt>
      <trkpt lat="52.231180015951395" lon="7.950939992442727">
        <ele>99</ele>
        <time>2026-01-19T20:58:49Z</time>
      </trkpt>
      <trkpt lat="52.231289986521006" lon="7.950649978592992">
        <ele>99</ele>
        <time>2026-01-19T20:58:55Z</time>
      </trkpt>
      <trkpt lat="52.231459971517324" lon="7.950200038030744">
        <ele>99</ele>
        <time>2026-01-19T20:59:04Z</time>
      </trkpt>
      <trkpt lat="52.231589974835515" lon="7.949629984796047">
        <ele>96</ele>
        <time>2026-01-19T20:59:14Z</time>
      </trkpt>
      <trkpt lat="52.231689970940351" lon="7.949250033125281">
        <ele>96</ele>
        <time>2026-01-19T20:59:20Z</time>
      </trkpt>
      <trkpt lat="52.23174998536706" lon="7.948900004848838">
        <ele>96</ele>
        <time>2026-01-19T20:59:26Z</time>
      </trkpt>
      <trkpt lat="52.231830032542348" lon="7.9485600348562">
        <ele>96</ele>
        <time>2026-01-19T20:59:32Z</time>
      </trkpt>
      <trkpt lat="52.23190002143383" lon="7.948210006579757">
        <ele>93</ele>
        <time>2026-01-19T20:59:38Z</time>
      </trkpt>
      <trkpt lat="52.231949977576733" lon="7.947840029373765">
        <ele>93</ele>
        <time>2026-01-19T20:59:44Z</time>
      </trkpt>
      <trkpt lat="52.232060031965375" lon="7.947290008887649">
        <ele>93</ele>
        <time>2026-01-19T20:59:54Z</time>
      </trkpt>
      <trkpt lat="52.232249965891242" lon="7.946309996768832">
        <ele>90</ele>
        <time>2026-01-19T21:00:11Z</time>
      </trkpt>
      <trkpt lat="52.232569986954331" lon="7.944649960845709">
        <ele>86</ele>
        <time>2026-01-19T21:00:39Z</time>
      </trkpt>
      <trkpt lat="52.232290031388402" lon="7.942219963297248">
        <ele>85</ele>
        <time>2026-01-19T21:01:20Z</time>
      </trkpt>
      <trkpt lat="52.232130020856857" lon="7.941010035574436">
        <ele>86</ele>
        <time>2026-01-19T21:01:40Z</time>
      </trkpt>
      <trkpt lat="52.232160028070211" lon="7.940320037305355">
        <ele>89</ele>
        <time>2026-01-19T21:01:51Z</time>
      </trkpt>
      <trkpt lat="52.232209984213114" lon="7.939679995179176">
        <ele>89</ele>
        <time>2026-01-19T21:02:02Z</time>
      </trkpt>
      <trkpt lat="52.232109988108277" lon="7.939229970797896">
        <ele>89</ele>
        <time>2026-01-19T21:02:10Z</time>
      </trkpt>
      <trkpt lat="52.23177001811564" lon="7.938790004700422">
        <ele>87</ele>
        <time>2026-01-19T21:02:22Z</time>
      </trkpt>
      <trkpt lat="52.231670022010803" lon="7.938460009172559">
        <ele>87</ele>
        <time>2026-01-19T21:02:28Z</time>
      </trkpt>
      <trkpt lat="52.231549993157387" lon="7.938090031966567">
        <ele>87</ele>
        <time>2026-01-19T21:02:35Z</time>
      </trkpt>
      <trkpt lat="52.23129996098578" lon="7.937789959833026">
        <ele>89</ele>
        <time>2026-01-19T21:02:43Z</time>
      </trkpt>
      <trkpt lat="52.230179971083999" lon="7.937359968200326">
        <ele>87</ele>
        <time>2026-01-19T21:03:14Z</time>
      </trkpt>
      <trkpt lat="52.229800019413233" lon="7.937359968200326">
        <ele>87</ele>
        <time>2026-01-19T21:03:24Z</time>
      </trkpt>
      <trkpt lat="52.229219991713762" lon="7.937270030379295">
        <ele>81</ele>
        <time>2026-01-19T21:03:40Z</time>
      </trkpt>
      <trkpt lat="52.229040032252669" lon="7.937240023165941">
        <ele>81</ele>
        <time>2026-01-19T21:03:45Z</time>
      </trkpt>
      <trkpt lat="52.228759992867708" lon="7.937140027061105">
        <ele>81</ele>
        <time>2026-01-19T21:03:52Z</time>
      </trkpt>
      <trkpt lat="52.227540006861091" lon="7.936339974403381">
        <ele>77</ele>
        <time>2026-01-19T21:04:27Z</time>
      </trkpt>
      <trkpt lat="52.227310007438064" lon="7.936239978298545">
        <ele>77</ele>
        <time>2026-01-19T21:04:34Z</time>
      </trkpt>
      <trkpt lat="52.227019993588328" lon="7.935900008305907">
        <ele>77</ele>
        <time>2026-01-19T21:04:43Z</time>
      </trkpt>
      <trkpt lat="52.226659990847111" lon="7.93567000888288">
        <ele>78</ele>
        <time>2026-01-19T21:04:54Z</time>
      </trkpt>
      <trkpt lat="52.226109970360994" lon="7.935379995033145">
        <ele>78</ele>
        <time>2026-01-19T21:05:09Z</time>
      </trkpt>
      <trkpt lat="52.225939985364676" lon="7.935210010036826">
        <ele>77</ele>
        <time>2026-01-19T21:05:15Z</time>
      </trkpt>
      <trkpt lat="52.225800007581711" lon="7.934180041775107">
        <ele>77</ele>
        <time>2026-01-19T21:05:32Z</time>
      </trkpt>
      <trkpt lat="52.2256900370121" lon="7.933760024607182">
        <ele>77</ele>
        <time>2026-01-19T21:05:39Z</time>
      </trkpt>
      <trkpt lat="52.225549975410104" lon="7.933560032397509">
        <ele>77</ele>
        <time>2026-01-19T21:05:44Z</time>
      </trkpt>
      <trkpt lat="52.225340008735657" lon="7.933530025184155">
        <ele>77</ele>
        <time>2026-01-19T21:05:50Z</time>
      </trkpt>
      <trkpt lat="52.224540039896965" lon="7.933690035715699">
        <ele>76</ele>
        <time>2026-01-19T21:06:12Z</time>
      </trkpt>
      <trkpt lat="52.224320014938712" lon="7.933539999648929">
        <ele>76</ele>
        <time>2026-01-19T21:06:18Z</time>
      </trkpt>
      <trkpt lat="52.224039975553751" lon="7.93206000700593">
        <ele>75</ele>
        <time>2026-01-19T21:06:44Z</time>
      </trkpt>
      <trkpt lat="52.22393000498414" lon="7.931390041485429">
        <ele>75</ele>
        <time>2026-01-19T21:06:55Z</time>
      </trkpt>
      <trkpt lat="52.22395003773272" lon="7.930819988250732">
        <ele>75</ele>
        <time>2026-01-19T21:07:04Z</time>
      </trkpt>
      <trkpt lat="52.223869990557432" lon="7.930229986086488">
        <ele>75</ele>
        <time>2026-01-19T21:07:14Z</time>
      </trkpt>
      <trkpt lat="52.223519962280989" lon="7.928640022873879">
        <ele>74</ele>
        <time>2026-01-19T21:07:42Z</time>
      </trkpt>
      <trkpt lat="52.223419966176152" lon="7.92769999243319">
        <ele>74</ele>
        <time>2026-01-19T21:07:58Z</time>
      </trkpt>
      <trkpt lat="52.223519962280989" lon="7.927320040762425">
        <ele>74</ele>
        <time>2026-01-19T21:08:04Z</time>
      </trkpt>
      <trkpt lat="52.223649965599179" lon="7.927049975842238">
        <ele>74</ele>
        <time>2026-01-19T21:08:10Z</time>
      </trkpt>
      <trkpt lat="52.223769994452596" lon="7.92673003859818">
        <ele>74</ele>
        <time>2026-01-19T21:08:16Z</time>
      </trkpt>
      <trkpt lat="52.223979961127043" lon="7.926500039175153">
        <ele>74</ele>
        <time>2026-01-19T21:08:23Z</time>
      </trkpt>
      <trkpt lat="52.224160004407167" lon="7.926480006426573">
        <ele>74</ele>
        <time>2026-01-19T21:08:28Z</time>
      </trkpt>
      <trkpt lat="52.224510032683611" lon="7.926440024748445">
        <ele>76</ele>
        <time>2026-01-19T21:08:37Z</time>
      </trkpt>
      <trkpt lat="52.224689992144704" lon="7.926359977573156">
        <ele>76</ele>
        <time>2026-01-19T21:08:42Z</time>
      </trkpt>
      <trkpt lat="52.224829969927669" lon="7.925959993153811">
        <ele>76</ele>
        <time>2026-01-19T21:08:50Z</time>
      </trkpt>
      <trkpt lat="52.22521997988224" lon="7.924789963290095">
        <ele>74</ele>
        <time>2026-01-19T21:09:12Z</time>
      </trkpt>
      <trkpt lat="52.225330034270883" lon="7.924370029941201">
        <ele>74</ele>
        <time>2026-01-19T21:09:19Z</time>
      </trkpt>
      <trkpt lat="52.225419972091913" lon="7.921590004116297">
        <ele>73</ele>
        <time>2026-01-19T21:10:05Z</time>
      </trkpt>
      <trkpt lat="52.225509993731976" lon="7.921239975839853">
        <ele>73</ele>
        <time>2026-01-19T21:10:11Z</time>
      </trkpt>
      <trkpt lat="52.225660029798746" lon="7.920900005847216">
        <ele>73</ele>
        <time>2026-01-19T21:10:18Z</time>
      </trkpt>
      <trkpt lat="52.225879970937967" lon="7.920830016955733">
        <ele>74</ele>
        <time>2026-01-19T21:10:24Z</time>
      </trkpt>
      <trkpt lat="52.226190017536283" lon="7.92093001306057">
        <ele>74</ele>
        <time>2026-01-19T21:10:33Z</time>
      </trkpt>
      <trkpt lat="52.22642001695931" lon="7.921069990843535">
        <ele>74</ele>
        <time>2026-01-19T21:10:39Z</time>
      </trkpt>
      <trkpt lat="52.226639958098531" lon="7.921239975839853">
        <ele>75</ele>
        <time>2026-01-19T21:10:46Z</time>
      </trkpt>
      <trkpt lat="52.226810026913881" lon="7.921429993584752">
        <ele>75</ele>
        <time>2026-01-19T21:10:51Z</time>
      </trkpt>
      <trkpt lat="52.2269800119102" lon="7.921639960259199">
        <ele>75</ele>
        <time>2026-01-19T21:10:57Z</time>
      </trkpt>
      <trkpt lat="52.227229960262775" lon="7.92194003239274">
        <ele>75</ele>
        <time>2026-01-19T21:11:05Z</time>
      </trkpt>
      <trkpt lat="52.228020038455725" lon="7.92320997454226">
        <ele>74</ele>
        <time>2026-01-19T21:11:35Z</time>
      </trkpt>
      <trkpt lat="52.228139983490109" lon="7.923490013927221">
        <ele>74</ele>
        <time>2026-01-19T21:11:41Z</time>
      </trkpt>
      <trkpt lat="52.228339975699782" lon="7.923859991133213">
        <ele>74</ele>
        <time>2026-01-19T21:11:49Z</time>
      </trkpt>
      <trkpt lat="52.228499986231327" lon="7.924059983342886">
        <ele>74</ele>
        <time>2026-01-19T21:11:54Z</time>
      </trkpt>
      <trkpt lat="52.228759992867708" lon="7.924310015514493">
        <ele>74</ele>
        <time>2026-01-19T21:12:02Z</time>
      </trkpt>
      <trkpt lat="52.228929977864027" lon="7.924449993297458">
        <ele>72</ele>
        <time>2026-01-19T21:12:07Z</time>
      </trkpt>
      <trkpt lat="52.2295599617064" lon="7.924730032682419">
        <ele>72</ele>
        <time>2026-01-19T21:12:25Z</time>
      </trkpt>
      <trkpt lat="52.230420028790832" lon="7.925109984353185">
        <ele>73</ele>
        <time>2026-01-19T21:12:48Z</time>
      </trkpt>
      <trkpt lat="52.230729991570115" lon="7.925230013206601">
        <ele>74</ele>
        <time>2026-01-19T21:12:57Z</time>
      </trkpt>
      <trkpt lat="52.230969965457916" lon="7.925290027633309">
        <ele>74</ele>
        <time>2026-01-19T21:13:03Z</time>
      </trkpt>
      <trkpt lat="52.231210023164749" lon="7.925230013206601">
        <ele>74</ele>
        <time>2026-01-19T21:13:10Z</time>
      </trkpt>
      <trkpt lat="52.23142996430397" lon="7.925030020996928">
        <ele>74</ele>
        <time>2026-01-19T21:13:17Z</time>
      </trkpt>
      <trkpt lat="52.23177001811564" lon="7.924709999933839">
        <ele>74</ele>
        <time>2026-01-19T21:13:27Z</time>
      </trkpt>
      <trkpt lat="52.231930028647184" lon="7.924419986084104">
        <ele>74</ele>
        <time>2026-01-19T21:13:33Z</time>
      </trkpt>
      <trkpt lat="52.23217997699976" lon="7.92395998723805">
        <ele>74</ele>
        <time>2026-01-19T21:13:44Z</time>
      </trkpt>
      <trkpt lat="52.232390027493238" lon="7.923609958961606">
        <ele>74</ele>
        <time>2026-01-19T21:13:52Z</time>
      </trkpt>
      <trkpt lat="52.232929989695549" lon="7.922890037298203">
        <ele>74</ele>
        <time>2026-01-19T21:14:10Z</time>
      </trkpt>
      <trkpt lat="52.23308002576232" lon="7.922440012916923">
        <ele>74</ele>
        <time>2026-01-19T21:14:19Z</time>
      </trkpt>
      <trkpt lat="52.233310025185347" lon="7.921220026910305">
        <ele>74</ele>
        <time>2026-01-19T21:14:39Z</time>
      </trkpt>
      <trkpt lat="52.233800031244755" lon="7.918549971655011">
        <ele>93</ele>
        <time>2026-01-19T21:15:25Z</time>
      </trkpt>
      <trkpt lat="52.234030030667782" lon="7.918809978291392">
        <ele>93</ele>
        <time>2026-01-19T21:15:36Z</time>
      </trkpt>
      <trkpt lat="52.234130026772618" lon="7.919069984927774">
        <ele>93</ele>
        <time>2026-01-19T21:15:41Z</time>
      </trkpt>
      <trkpt lat="52.234960002824664" lon="7.919129999354482">
        <ele>105</ele>
        <time>2026-01-19T21:16:03Z</time>
      </trkpt>
      <trkpt lat="52.235139962285757" lon="7.919120024889708">
        <ele>105</ele>
        <time>2026-01-19T21:16:08Z</time>
      </trkpt>
      <trkpt lat="52.23594001494348" lon="7.918920032680035">
        <ele>115</ele>
        <time>2026-01-19T21:16:29Z</time>
      </trkpt>
      <trkpt lat="52.236379981040955" lon="7.918700007721782">
        <ele>121</ele>
        <time>2026-01-19T21:16:42Z</time>
      </trkpt>
      <trkpt lat="52.236720034852624" lon="7.918389961123467">
        <ele>121</ele>
        <time>2026-01-19T21:16:52Z</time>
      </trkpt>
      <trkpt lat="52.236999990418553" lon="7.918140012770891">
        <ele>121</ele>
        <time>2026-01-19T21:17:01Z</time>
      </trkpt>
      <trkpt lat="52.23722998984158" lon="7.918040016666055">
        <ele>121</ele>
        <time>2026-01-19T21:17:07Z</time>
      </trkpt>
      <trkpt lat="52.237440040335059" lon="7.917970027774572">
        <ele>124</ele>
        <time>2026-01-19T21:17:13Z</time>
      </trkpt>
      <trkpt lat="52.237819992005825" lon="7.91785997338593">
        <ele>124</ele>
        <time>2026-01-19T21:17:23Z</time>
      </trkpt>
      <trkpt lat="52.238189969211817" lon="7.91772997006774">
        <ele>124</ele>
        <time>2026-01-19T21:17:33Z</time>
      </trkpt>
      <trkpt lat="52.238600011914968" lon="7.917440040037036">
        <ele>112</ele>
        <time>2026-01-19T21:17:45Z</time>
      </trkpt>
      <trkpt lat="52.238890025764704" lon="7.917369967326522">
        <ele>112</ele>
        <time>2026-01-19T21:17:53Z</time>
      </trkpt>
      <trkpt lat="52.23939998075366" lon="7.917280029505491">
        <ele>98</ele>
        <time>2026-01-19T21:18:07Z</time>
      </trkpt>
      <trkpt lat="52.239669961854815" lon="7.917199982330203">
        <ele>98</ele>
        <time>2026-01-19T21:18:14Z</time>
      </trkpt>
      <trkpt lat="52.240649973973632" lon="7.916830005124211">
        <ele>91</ele>
        <time>2026-01-19T21:18:41Z</time>
      </trkpt>
      <trkpt lat="52.240960020571947" lon="7.916809972375631">
        <ele>91</ele>
        <time>2026-01-19T21:18:49Z</time>
      </trkpt>
      <trkpt lat="52.242349991574883" lon="7.916920026764274">
        <ele>77</ele>
        <time>2026-01-19T21:19:26Z</time>
      </trkpt>
      <trkpt lat="52.242719968780875" lon="7.916960008442402">
        <ele>77</ele>
        <time>2026-01-19T21:19:36Z</time>
      </trkpt>
      <trkpt lat="52.243190025910735" lon="7.916560024023056">
        <ele>73</ele>
        <time>2026-01-19T21:19:51Z</time>
      </trkpt>
      <trkpt lat="52.243390018120408" lon="7.916490035131574">
        <ele>73</ele>
        <time>2026-01-19T21:19:56Z</time>
      </trkpt>
      <trkpt lat="52.244589971378446" lon="7.916249977424741">
        <ele>71</ele>
        <time>2026-01-19T21:20:28Z</time>
      </trkpt>
      <trkpt lat="52.245190031826496" lon="7.915819985792041">
        <ele>71</ele>
        <time>2026-01-19T21:20:46Z</time>
      </trkpt>
      <trkpt lat="52.245550034567714" lon="7.915550004690886">
        <ele>71</ele>
        <time>2026-01-19T21:20:56Z</time>
      </trkpt>
      <trkpt lat="52.245739968493581" lon="7.915229983627796">
        <ele>70</ele>
        <time>2026-01-19T21:21:04Z</time>
      </trkpt>
      <trkpt lat="52.245850022882223" lon="7.914839973673224">
        <ele>70</ele>
        <time>2026-01-19T21:21:11Z</time>
      </trkpt>
      <trkpt lat="52.24592998623848" lon="7.914560018107295">
        <ele>70</ele>
        <time>2026-01-19T21:21:16Z</time>
      </trkpt>
      <trkpt lat="52.24608002230525" lon="7.914100019261241">
        <ele>70</ele>
        <time>2026-01-19T21:21:24Z</time>
      </trkpt>
      <trkpt lat="52.246270040050149" lon="7.913849987089634">
        <ele>70</ele>
        <time>2026-01-19T21:21:31Z</time>
      </trkpt>
      <trkpt lat="52.246480006724596" lon="7.913710009306669">
        <ele>70</ele>
        <time>2026-01-19T21:21:37Z</time>
      </trkpt>
      <trkpt lat="52.24683003500104" lon="7.91351999156177">
        <ele>70</ele>
        <time>2026-01-19T21:21:47Z</time>
      </trkpt>
      <trkpt lat="52.247070008888841" lon="7.913370039314032">
        <ele>70</ele>
        <time>2026-01-19T21:21:54Z</time>
      </trkpt>
      <trkpt lat="52.247270001098514" lon="7.913169963285327">
        <ele>71</ele>
        <time>2026-01-19T21:22:00Z</time>
      </trkpt>
      <trkpt lat="52.247420037165284" lon="7.912750029936433">
        <ele>71</ele>
        <time>2026-01-19T21:22:08Z</time>
      </trkpt>
      <trkpt lat="52.247460018843412" lon="7.912170002236962">
        <ele>71</ele>
        <time>2026-01-19T21:22:18Z</time>
      </trkpt>
      <trkpt lat="52.247490026056767" lon="7.911679996177554">
        <ele>70</ele>
        <time>2026-01-19T21:22:26Z</time>
      </trkpt>
      <trkpt lat="52.247569989413023" lon="7.911029979586601">
        <ele>70</ele>
        <time>2026-01-19T21:22:37Z</time>
      </trkpt>
      <trkpt lat="52.248139958828688" lon="7.906889989972115">
        <ele>70</ele>
        <time>2026-01-19T21:23:46Z</time>
      </trkpt>
      <trkpt lat="52.24825001321733" lon="7.905540000647306">
        <ele>71</ele>
        <time>2026-01-19T21:24:08Z</time>
      </trkpt>
      <trkpt lat="52.248359983786941" lon="7.903860015794635">
        <ele>73</ele>
        <time>2026-01-19T21:24:36Z</time>
      </trkpt>
      <trkpt lat="52.248510019853711" lon="7.901879958808422">
        <ele>77</ele>
        <time>2026-01-19T21:25:08Z</time>
      </trkpt>
      <trkpt lat="52.248640023171902" lon="7.900680005550385">
        <ele>80</ele>
        <time>2026-01-19T21:25:28Z</time>
      </trkpt>
      <trkpt lat="52.248919978737831" lon="7.89822000078857">
        <ele>83</ele>
        <time>2026-01-19T21:26:09Z</time>
      </trkpt>
      <trkpt lat="52.248989967629313" lon="7.897149967029691">
        <ele>85</ele>
        <time>2026-01-19T21:26:27Z</time>
      </trkpt>
      <trkpt lat="52.248949985951185" lon="7.895590011030436">
        <ele>88</ele>
        <time>2026-01-19T21:26:52Z</time>
      </trkpt>
      <trkpt lat="52.248879997059703" lon="7.894670013338327">
        <ele>88</ele>
        <time>2026-01-19T21:27:08Z</time>
      </trkpt>
      <trkpt lat="52.248789975419641" lon="7.894280003383756">
        <ele>95</ele>
        <time>2026-01-19T21:27:14Z</time>
      </trkpt>
      <trkpt lat="52.248629964888096" lon="7.893710033968091">
        <ele>95</ele>
        <time>2026-01-19T21:27:25Z</time>
      </trkpt>
      <trkpt lat="52.248150017112494" lon="7.892240015789866">
        <ele>94</ele>
        <time>2026-01-19T21:27:52Z</time>
      </trkpt>
      <trkpt lat="52.247990006580949" lon="7.891599973663688">
        <ele>91</ele>
        <time>2026-01-19T21:28:03Z</time>
      </trkpt>
      <trkpt lat="52.247590022161603" lon="7.888779966160655">
        <ele>90</ele>
        <time>2026-01-19T21:28:51Z</time>
      </trkpt>
      <trkpt lat="52.247520033270121" lon="7.888030037283897">
        <ele>84</ele>
        <time>2026-01-19T21:29:03Z</time>
      </trkpt>
      <trkpt lat="52.247569989413023" lon="7.887299973517656">
        <ele>84</ele>
        <time>2026-01-19T21:29:15Z</time>
      </trkpt>
      <trkpt lat="52.247809963300824" lon="7.884929990395904">
        <ele>82</ele>
        <time>2026-01-19T21:29:54Z</time>
      </trkpt>
      <trkpt lat="52.247860003262758" lon="7.884590020403266">
        <ele>82</ele>
        <time>2026-01-19T21:30:00Z</time>
      </trkpt>
      <trkpt lat="52.247950024902821" lon="7.884300006553531">
        <ele>82</ele>
        <time>2026-01-19T21:30:05Z</time>
      </trkpt>
      <trkpt lat="52.248289994895458" lon="7.88358997553587">
        <ele>86</ele>
        <time>2026-01-19T21:30:20Z</time>
      </trkpt>
      <trkpt lat="52.248550001531839" lon="7.883099969476461">
        <ele>86</ele>
        <time>2026-01-19T21:30:31Z</time>
      </trkpt>
      <trkpt lat="52.249000025913119" lon="7.882690010592341">
        <ele>89</ele>
        <time>2026-01-19T21:30:44Z</time>
      </trkpt>
      <trkpt lat="52.249370003119111" lon="7.882139990106225">
        <ele>89</ele>
        <time>2026-01-19T21:30:58Z</time>
      </trkpt>
      <trkpt lat="52.249569995328784" lon="7.881659958511591">
        <ele>89</ele>
        <time>2026-01-19T21:31:07Z</time>
      </trkpt>
      <trkpt lat="52.249920023605227" lon="7.880929978564382">
        <ele>89</ele>
        <time>2026-01-19T21:31:23Z</time>
      </trkpt>
      <trkpt lat="52.2505500074476" lon="7.879860028624535">
        <ele>88</ele>
        <time>2026-01-19T21:31:47Z</time>
      </trkpt>
      <trkpt lat="52.250889977440238" lon="7.879319982603192">
        <ele>94</ele>
        <time>2026-01-19T21:32:00Z</time>
      </trkpt>
      <trkpt lat="52.251019980758429" lon="7.879040027037263">
        <ele>94</ele>
        <time>2026-01-19T21:32:05Z</time>
      </trkpt>
      <trkpt lat="52.251079995185137" lon="7.878659991547465">
        <ele>94</ele>
        <time>2026-01-19T21:32:12Z</time>
      </trkpt>
      <trkpt lat="52.251079995185137" lon="7.878069989383221">
        <ele>94</ele>
        <time>2026-01-19T21:32:21Z</time>
      </trkpt>
      <trkpt lat="52.251070020720363" lon="7.876980006694794">
        <ele>92</ele>
        <time>2026-01-19T21:32:39Z</time>
      </trkpt>
      <trkpt lat="52.251059962436557" lon="7.876450018957257">
        <ele>92</ele>
        <time>2026-01-19T21:32:48Z</time>
      </trkpt>
      <trkpt lat="52.251049987971783" lon="7.876109965145588">
        <ele>92</ele>
        <time>2026-01-19T21:32:54Z</time>
      </trkpt>
      <trkpt lat="52.25095996633172" lon="7.875539995729923">
        <ele>92</ele>
        <time>2026-01-19T21:33:03Z</time>
      </trkpt>
      <trkpt lat="52.250880002975464" lon="7.875030040740967">
        <ele>92</ele>
        <time>2026-01-19T21:33:12Z</time>
      </trkpt>
      <trkpt lat="52.250940017402172" lon="7.874499969184399">
        <ele>94</ele>
        <time>2026-01-19T21:33:21Z</time>
      </trkpt>
      <trkpt lat="52.251110002398491" lon="7.873579971492291">
        <ele>94</ele>
        <time>2026-01-19T21:33:36Z</time>
      </trkpt>
      <trkpt lat="52.251219972968102" lon="7.873170012608171">
        <ele>92</ele>
        <time>2026-01-19T21:33:44Z</time>
      </trkpt>
      <trkpt lat="52.251349976286292" lon="7.872889973223209">
        <ele>92</ele>
        <time>2026-01-19T21:33:49Z</time>
      </trkpt>
      <trkpt lat="52.251519961282611" lon="7.872619992122054">
        <ele>92</ele>
        <time>2026-01-19T21:33:56Z</time>
      </trkpt>
      <trkpt lat="52.252090014517307" lon="7.871569991111755">
        <ele>86</ele>
        <time>2026-01-19T21:34:19Z</time>
      </trkpt>
      <trkpt lat="52.252280032262206" lon="7.871070010587573">
        <ele>86</ele>
        <time>2026-01-19T21:34:28Z</time>
      </trkpt>
      <trkpt lat="52.25256996229291" lon="7.870069965720177">
        <ele>84</ele>
        <time>2026-01-19T21:34:46Z</time>
      </trkpt>
      <trkpt lat="52.252629976719618" lon="7.869790010154247">
        <ele>84</ele>
        <time>2026-01-19T21:34:51Z</time>
      </trkpt>
      <trkpt lat="52.252480024471879" lon="7.868610005825758">
        <ele>83</ele>
        <time>2026-01-19T21:35:11Z</time>
      </trkpt>
      <trkpt lat="52.252459991723299" lon="7.868129974231124">
        <ele>83</ele>
        <time>2026-01-19T21:35:19Z</time>
      </trkpt>
      <trkpt lat="52.25274003110826" lon="7.866459963843226">
        <ele>81</ele>
        <time>2026-01-19T21:35:47Z</time>
      </trkpt>
      <trkpt lat="52.253230037167668" lon="7.863750010728836">
        <ele>78</ele>
        <time>2026-01-19T21:36:33Z</time>
      </trkpt>
      <trkpt lat="52.253430029377341" lon="7.863520011305809">
        <ele>78</ele>
        <time>2026-01-19T21:36:41Z</time>
      </trkpt>
      <trkpt lat="52.253790032118559" lon="7.86332999356091">
        <ele>78</ele>
        <time>2026-01-19T21:36:51Z</time>
      </trkpt>
      <trkpt lat="52.253999998793006" lon="7.863160008564591">
        <ele>78</ele>
        <time>2026-01-19T21:36:57Z</time>
      </trkpt>
      <trkpt lat="52.254599975422025" lon="7.862660028040409">
        <ele>80</ele>
        <time>2026-01-19T21:37:15Z</time>
      </trkpt>
      <trkpt lat="52.25488998927176" lon="7.86244997754693">
        <ele>80</ele>
        <time>2026-01-19T21:37:24Z</time>
      </trkpt>
      <trkpt lat="52.256049960851669" lon="7.862110007554293">
        <ele>83</ele>
        <time>2026-01-19T21:37:55Z</time>
      </trkpt>
      <trkpt lat="52.25761997513473" lon="7.861640034243465">
        <ele>75</ele>
        <time>2026-01-19T21:38:38Z</time>
      </trkpt>
      <trkpt lat="52.258409969508648" lon="7.861410034820437">
        <ele>73</ele>
        <time>2026-01-19T21:38:59Z</time>
      </trkpt>
      <trkpt lat="52.259080018848181" lon="7.861199984326959">
        <ele>73</ele>
        <time>2026-01-19T21:39:17Z</time>
      </trkpt>
      <trkpt lat="52.25938000716269" lon="7.861120020970702">
        <ele>72</ele>
        <time>2026-01-19T21:39:26Z</time>
      </trkpt>
      <trkpt lat="52.259670021012425" lon="7.861039973795414">
        <ele>72</ele>
        <time>2026-01-19T21:39:33Z</time>
      </trkpt>
      <trkpt lat="52.260100012645125" lon="7.860979959368706">
        <ele>72</ele>
        <time>2026-01-19T21:39:45Z</time>
      </trkpt>
      <trkpt lat="52.260400000959635" lon="7.860979959368706">
        <ele>71</ele>
        <time>2026-01-19T21:39:53Z</time>
      </trkpt>
      <trkpt lat="52.261050017550588" lon="7.860979959368706">
        <ele>71</ele>
        <time>2026-01-19T21:40:10Z</time>
      </trkpt>
      <trkpt lat="52.261510016396642" lon="7.860979959368706">
        <ele>70</ele>
        <time>2026-01-19T21:40:23Z</time>
      </trkpt>
      <trkpt lat="52.262040004134178" lon="7.860950035974383">
        <ele>70</ele>
        <time>2026-01-19T21:40:37Z</time>
      </trkpt>
      <trkpt lat="52.262569991871715" lon="7.860860014334321">
        <ele>69</ele>
        <time>2026-01-19T21:40:51Z</time>
      </trkpt>
      <trkpt lat="52.263139961287379" lon="7.860639989376068">
        <ele>67</ele>
        <time>2026-01-19T21:41:07Z</time>
      </trkpt>
      <trkpt lat="52.263480015099049" lon="7.860460029914975">
        <ele>67</ele>
        <time>2026-01-19T21:41:16Z</time>
      </trkpt>
      <trkpt lat="52.263940013945103" lon="7.860100027173758">
        <ele>67</ele>
        <time>2026-01-19T21:41:30Z</time>
      </trkpt>
      <trkpt lat="52.264409987255931" lon="7.859710017219186">
        <ele>67</ele>
        <time>2026-01-19T21:41:44Z</time>
      </trkpt>
      <trkpt lat="52.26473000831902" lon="7.859550006687641">
        <ele>67</ele>
        <time>2026-01-19T21:41:53Z</time>
      </trkpt>
      <trkpt lat="52.265329984948039" lon="7.859340040013194">
        <ele>66</ele>
        <time>2026-01-19T21:42:09Z</time>
      </trkpt>
      <trkpt lat="52.265629973262548" lon="7.859320007264614">
        <ele>66</ele>
        <time>2026-01-19T21:42:17Z</time>
      </trkpt>
      <trkpt lat="52.265840023756027" lon="7.859190003946424">
        <ele>67</ele>
        <time>2026-01-19T21:42:24Z</time>
      </trkpt>
      <trkpt lat="52.266210000962019" lon="7.859080033376813">
        <ele>67</ele>
        <time>2026-01-19T21:42:34Z</time>
      </trkpt>
      <trkpt lat="52.266389960423112" lon="7.859099982306361">
        <ele>67</ele>
        <time>2026-01-19T21:42:39Z</time>
      </trkpt>
      <trkpt lat="52.266709981486201" lon="7.859169971197844">
        <ele>67</ele>
        <time>2026-01-19T21:42:48Z</time>
      </trkpt>
      <trkpt lat="52.2668999992311" lon="7.859110040590167">
        <ele>68</ele>
        <time>2026-01-19T21:42:53Z</time>
      </trkpt>
      <trkpt lat="52.266969988122582" lon="7.85883997566998">
        <ele>68</ele>
        <time>2026-01-19T21:43:00Z</time>
      </trkpt>
      <trkpt lat="52.266890024766326" lon="7.85827998071909">
        <ele>69</ele>
        <time>2026-01-19T21:43:09Z</time>
      </trkpt>
      <trkpt lat="52.266809977591038" lon="7.857759967446327">
        <ele>69</ele>
        <time>2026-01-19T21:43:18Z</time>
      </trkpt>
      <trkpt lat="52.266709981486201" lon="7.857069969177246">
        <ele>69</ele>
        <time>2026-01-19T21:43:29Z</time>
      </trkpt>
      <trkpt lat="52.266649967059493" lon="7.856620028614998">
        <ele>71</ele>
        <time>2026-01-19T21:43:37Z</time>
      </trkpt>
      <trkpt lat="52.266639992594719" lon="7.856290033087134">
        <ele>71</ele>
        <time>2026-01-19T21:43:42Z</time>
      </trkpt>
      <trkpt lat="52.266669999808073" lon="7.855889964848757">
        <ele>71</ele>
        <time>2026-01-19T21:43:49Z</time>
      </trkpt>
      <trkpt lat="52.26674996316433" lon="7.855510013177991">
        <ele>71</ele>
        <time>2026-01-19T21:43:56Z</time>
      </trkpt>
      <trkpt lat="52.267359998077154" lon="7.852499987930059">
        <ele>76</ele>
        <time>2026-01-19T21:44:47Z</time>
      </trkpt>
      <trkpt lat="52.267429986968637" lon="7.852000007405877">
        <ele>76</ele>
        <time>2026-01-19T21:44:56Z</time>
      </trkpt>
      <trkpt lat="52.267970032989979" lon="7.85161997191608">
        <ele>76</ele>
        <time>2026-01-19T21:45:12Z</time>
      </trkpt>
      <trkpt lat="52.268219981342554" lon="7.851909985765815">
        <ele>78</ele>
        <time>2026-01-19T21:45:20Z</time>
      </trkpt>
      <trkpt lat="52.268419973552227" lon="7.852109977975488">
        <ele>78</ele>
        <time>2026-01-19T21:45:26Z</time>
      </trkpt>
      <trkpt lat="52.269039982929826" lon="7.852529995143414">
        <ele>79</ele>
        <time>2026-01-19T21:45:44Z</time>
      </trkpt>
      <trkpt lat="52.26922002620995" lon="7.85262999124825">
        <ele>79</ele>
        <time>2026-01-19T21:45:49Z</time>
      </trkpt>
      <trkpt lat="52.269720006734133" lon="7.852929979562759">
        <ele>79</ele>
        <time>2026-01-19T21:46:04Z</time>
      </trkpt>
      <trkpt lat="52.269999962300062" lon="7.853110022842884">
        <ele>80</ele>
        <time>2026-01-19T21:46:12Z</time>
      </trkpt>
      <trkpt lat="52.270189980044961" lon="7.853210018947721">
        <ele>80</ele>
        <time>2026-01-19T21:46:17Z</time>
      </trkpt>
      <trkpt lat="52.27048996835947" lon="7.853310015052557">
        <ele>80</ele>
        <time>2026-01-19T21:46:25Z</time>
      </trkpt>
      <trkpt lat="52.270740000531077" lon="7.853349996730685">
        <ele>80</ele>
        <time>2026-01-19T21:46:32Z</time>
      </trkpt>
      <trkpt lat="52.270949967205524" lon="7.853370029479265">
        <ele>81</ele>
        <time>2026-01-19T21:46:37Z</time>
      </trkpt>
      <trkpt lat="52.271639965474606" lon="7.853410011157394">
        <ele>81</ele>
        <time>2026-01-19T21:46:56Z</time>
      </trkpt>
      <trkpt lat="52.272199960425496" lon="7.853389978408814">
        <ele>84</ele>
        <time>2026-01-19T21:47:11Z</time>
      </trkpt>
      <trkpt lat="52.273119958117604" lon="7.853370029479265">
        <ele>86</ele>
        <time>2026-01-19T21:47:35Z</time>
      </trkpt>
      <trkpt lat="52.273629996925592" lon="7.853319989517331">
        <ele>86</ele>
        <time>2026-01-19T21:47:49Z</time>
      </trkpt>
      <trkpt lat="52.274180017411709" lon="7.853340022265911">
        <ele>86</ele>
        <time>2026-01-19T21:48:04Z</time>
      </trkpt>
      <trkpt lat="52.274610009044409" lon="7.853400036692619">
        <ele>86</ele>
        <time>2026-01-19T21:48:15Z</time>
      </trkpt>
      <trkpt lat="52.274860041216016" lon="7.853459967300296">
        <ele>85</ele>
        <time>2026-01-19T21:48:22Z</time>
      </trkpt>
      <trkpt lat="52.275060033425689" lon="7.853519981727004">
        <ele>85</ele>
        <time>2026-01-19T21:48:28Z</time>
      </trkpt>
      <trkpt lat="52.275499999523163" lon="7.853670017793775">
        <ele>85</ele>
        <time>2026-01-19T21:48:40Z</time>
      </trkpt>
      <trkpt lat="52.275679958984256" lon="7.853719973936677">
        <ele>85</ele>
        <time>2026-01-19T21:48:44Z</time>
      </trkpt>
      <trkpt lat="52.276540026068687" lon="7.854009987786412">
        <ele>85</ele>
        <time>2026-01-19T21:49:08Z</time>
      </trkpt>
      <trkpt lat="52.27671998552978" lon="7.854070002213121">
        <ele>87</ele>
        <time>2026-01-19T21:49:13Z</time>
      </trkpt>
      <trkpt lat="52.277119969949126" lon="7.854209979996085">
        <ele>87</ele>
        <time>2026-01-19T21:49:24Z</time>
      </trkpt>
      <trkpt lat="52.277339994907379" lon="7.854139991104603">
        <ele>87</ele>
        <time>2026-01-19T21:49:30Z</time>
      </trkpt>
      <trkpt lat="52.277549961581826" lon="7.853840002790093">
        <ele>87</ele>
        <time>2026-01-19T21:49:37Z</time>
      </trkpt>
      <trkpt lat="52.277909964323044" lon="7.853389978408814">
        <ele>87</ele>
        <time>2026-01-19T21:49:49Z</time>
      </trkpt>
      <trkpt lat="52.27802999317646" lon="7.852929979562759">
        <ele>87</ele>
        <time>2026-01-19T21:49:58Z</time>
      </trkpt>
      <trkpt lat="52.27805002592504" lon="7.852599984034896">
        <ele>89</ele>
        <time>2026-01-19T21:50:03Z</time>
      </trkpt>
      <trkpt lat="52.277960004284978" lon="7.851379998028278">
        <ele>89</ele>
        <time>2026-01-19T21:50:23Z</time>
      </trkpt>
      <trkpt lat="52.277890015393496" lon="7.850160012021661">
        <ele>94</ele>
        <time>2026-01-19T21:50:43Z</time>
      </trkpt>
      <trkpt lat="52.27789998985827" lon="7.849679980427027">
        <ele>94</ele>
        <time>2026-01-19T21:50:51Z</time>
      </trkpt>
      <trkpt lat="52.278020018711686" lon="7.849359959363937">
        <ele>100</ele>
        <time>2026-01-19T21:50:57Z</time>
      </trkpt>
      <trkpt lat="52.27891000919044" lon="7.848120024427772">
        <ele>101</ele>
        <time>2026-01-19T21:51:29Z</time>
      </trkpt>
      <trkpt lat="52.279820032417774" lon="7.846810016781092">
        <ele>99</ele>
        <time>2026-01-19T21:52:01Z</time>
      </trkpt>
      <trkpt lat="52.280299980193377" lon="7.846719995141029">
        <ele>100</ele>
        <time>2026-01-19T21:52:14Z</time>
      </trkpt>
      <trkpt lat="52.280989978462458" lon="7.846889980137348">
        <ele>100</ele>
        <time>2026-01-19T21:52:33Z</time>
      </trkpt>
      <trkpt lat="52.281240010634065" lon="7.846880005672574">
        <ele>99</ele>
        <time>2026-01-19T21:52:39Z</time>
      </trkpt>
      <trkpt lat="52.281830012798309" lon="7.846780009567738">
        <ele>99</ele>
        <time>2026-01-19T21:52:55Z</time>
      </trkpt>
      <trkpt lat="52.282250029966235" lon="7.846699962392449">
        <ele>98</ele>
        <time>2026-01-19T21:53:07Z</time>
      </trkpt>
      <trkpt lat="52.282889988273382" lon="7.846239963546395">
        <ele>98</ele>
        <time>2026-01-19T21:53:25Z</time>
      </trkpt>
      <trkpt lat="52.283089980483055" lon="7.846109960228205">
        <ele>98</ele>
        <time>2026-01-19T21:53:31Z</time>
      </trkpt>
      <trkpt lat="52.283719964325428" lon="7.846250021830201">
        <ele>99</ele>
        <time>2026-01-19T21:53:48Z</time>
      </trkpt>
      <trkpt lat="52.284030010923743" lon="7.846359992399812">
        <ele>95</ele>
        <time>2026-01-19T21:53:57Z</time>
      </trkpt>
      <trkpt lat="52.284230003133416" lon="7.846410032361746">
        <ele>95</ele>
        <time>2026-01-19T21:54:02Z</time>
      </trkpt>
      <trkpt lat="52.284439969807863" lon="7.846339959651232">
        <ele>95</ele>
        <time>2026-01-19T21:54:08Z</time>
      </trkpt>
      <trkpt lat="52.284629987552762" lon="7.845999989658594">
        <ele>95</ele>
        <time>2026-01-19T21:54:16Z</time>
      </trkpt>
      <trkpt lat="52.284750016406178" lon="7.845549965277314">
        <ele>91</ele>
        <time>2026-01-19T21:54:24Z</time>
      </trkpt>
      <trkpt lat="52.28509996086359" lon="7.844139961525798">
        <ele>90</ele>
        <time>2026-01-19T21:54:49Z</time>
      </trkpt>
      <trkpt lat="52.285229964181781" lon="7.843630006536841">
        <ele>90</ele>
        <time>2026-01-19T21:54:58Z</time>
      </trkpt>
      <trkpt lat="52.285349993035197" lon="7.843330018222332">
        <ele>90</ele>
        <time>2026-01-19T21:55:03Z</time>
      </trkpt>
      <trkpt lat="52.285789959132671" lon="7.842459976673126">
        <ele>86</ele>
        <time>2026-01-19T21:55:22Z</time>
      </trkpt>
      <trkpt lat="52.285930020734668" lon="7.842169962823391">
        <ele>86</ele>
        <time>2026-01-19T21:55:28Z</time>
      </trkpt>
      <trkpt lat="52.287010028958321" lon="7.839509965851903">
        <ele>86</ele>
        <time>2026-01-19T21:56:20Z</time>
      </trkpt>
      <trkpt lat="52.287140032276511" lon="7.839209977537394">
        <ele>86</ele>
        <time>2026-01-19T21:56:26Z</time>
      </trkpt>
      <trkpt lat="52.287540016695857" lon="7.838479997590184">
        <ele>85</ele>
        <time>2026-01-19T21:56:42Z</time>
      </trkpt>
      <trkpt lat="52.287770016118884" lon="7.838089987635613">
        <ele>85</ele>
        <time>2026-01-19T21:56:51Z</time>
      </trkpt>
      <trkpt lat="52.287979982793331" lon="7.837690003216267">
        <ele>85</ele>
        <time>2026-01-19T21:57:00Z</time>
      </trkpt>
      <trkpt lat="52.288179975003004" lon="7.837380040436983">
        <ele>85</ele>
        <time>2026-01-19T21:57:07Z</time>
      </trkpt>
      <trkpt lat="52.288360018283129" lon="7.83713998273015">
        <ele>85</ele>
        <time>2026-01-19T21:57:13Z</time>
      </trkpt>
      <trkpt lat="52.288590017706156" lon="7.836879976093769">
        <ele>85</ele>
        <time>2026-01-19T21:57:21Z</time>
      </trkpt>
      <trkpt lat="52.288899980485439" lon="7.836570013314486">
        <ele>84</ele>
        <time>2026-01-19T21:57:30Z</time>
      </trkpt>
      <trkpt lat="52.289540022611618" lon="7.836010018363595">
        <ele>84</ele>
        <time>2026-01-19T21:57:50Z</time>
      </trkpt>
      <trkpt lat="52.289819978177547" lon="7.83574003726244">
        <ele>84</ele>
        <time>2026-01-19T21:57:58Z</time>
      </trkpt>
      <trkpt lat="52.290219962596893" lon="7.835469972342253">
        <ele>84</ele>
        <time>2026-01-19T21:58:10Z</time>
      </trkpt>
      <trkpt lat="52.291159993037581" lon="7.834900002926588">
        <ele>80</ele>
        <time>2026-01-19T21:58:37Z</time>
      </trkpt>
      <trkpt lat="52.291410025209188" lon="7.834719959646463">
        <ele>75</ele>
        <time>2026-01-19T21:58:44Z</time>
      </trkpt>
      <trkpt lat="52.291589984670281" lon="7.834479985758662">
        <ele>75</ele>
        <time>2026-01-19T21:58:50Z</time>
      </trkpt>
      <trkpt lat="52.291680006310344" lon="7.834070026874542">
        <ele>75</ele>
        <time>2026-01-19T21:58:58Z</time>
      </trkpt>
      <trkpt lat="52.29167003184557" lon="7.833729973062873">
        <ele>75</ele>
        <time>2026-01-19T21:59:03Z</time>
      </trkpt>
      <trkpt lat="52.29164999909699" lon="7.833339963108301">
        <ele>74</ele>
        <time>2026-01-19T21:59:10Z</time>
      </trkpt>
      <trkpt lat="52.291489988565445" lon="7.831340041011572">
        <ele>72</ele>
        <time>2026-01-19T21:59:42Z</time>
      </trkpt>
      <trkpt lat="52.291429974138737" lon="7.830630009993911">
        <ele>72</ele>
        <time>2026-01-19T21:59:54Z</time>
      </trkpt>
      <trkpt lat="52.291459981352091" lon="7.830300014466047">
        <ele>72</ele>
        <time>2026-01-19T22:00:00Z</time>
      </trkpt>
      <trkpt lat="52.291610017418861" lon="7.829989967867732">
        <ele>72</ele>
        <time>2026-01-19T22:00:06Z</time>
      </trkpt>
      <trkpt lat="52.292160037904978" lon="7.829389991238713">
        <ele>72</ele>
        <time>2026-01-19T22:00:24Z</time>
      </trkpt>
      <trkpt lat="52.292390037328005" lon="7.829159991815686">
        <ele>72</ele>
        <time>2026-01-19T22:00:31Z</time>
      </trkpt>
      <trkpt lat="52.292809970676899" lon="7.828699992969632">
        <ele>72</ele>
        <time>2026-01-19T22:00:45Z</time>
      </trkpt>
      <trkpt lat="52.293150024488568" lon="7.828300008550286">
        <ele>70</ele>
        <time>2026-01-19T22:00:56Z</time>
      </trkpt>
      <trkpt lat="52.293359991163015" lon="7.828040001913905">
        <ele>70</ele>
        <time>2026-01-19T22:01:03Z</time>
      </trkpt>
      <trkpt lat="52.293589990586042" lon="7.82774998806417">
        <ele>70</ele>
        <time>2026-01-19T22:01:11Z</time>
      </trkpt>
      <trkpt lat="52.293840022757649" lon="7.827419992536306">
        <ele>70</ele>
        <time>2026-01-19T22:01:19Z</time>
      </trkpt>
      <trkpt lat="52.294340003281832" lon="7.826569983735681">
        <ele>70</ele>
        <time>2026-01-19T22:01:38Z</time>
      </trkpt>
      <trkpt lat="52.294470006600022" lon="7.826330009847879">
        <ele>67</ele>
        <time>2026-01-19T22:01:44Z</time>
      </trkpt>
      <trkpt lat="52.294660024344921" lon="7.826060028746724">
        <ele>67</ele>
        <time>2026-01-19T22:01:50Z</time>
      </trkpt>
      <trkpt lat="52.294860016554594" lon="7.825970007106662">
        <ele>67</ele>
        <time>2026-01-19T22:01:56Z</time>
      </trkpt>
      <trkpt lat="52.295109964907169" lon="7.825949974358082">
        <ele>67</ele>
        <time>2026-01-19T22:02:03Z</time>
      </trkpt>
      <trkpt lat="52.295550014823675" lon="7.825949974358082">
        <ele>68</ele>
        <time>2026-01-19T22:02:15Z</time>
      </trkpt>
      <trkpt lat="52.295910017564893" lon="7.825939999893308">
        <ele>68</ele>
        <time>2026-01-19T22:02:24Z</time>
      </trkpt>
      <trkpt lat="52.296110009774566" lon="7.825819971039891">
        <ele>68</ele>
        <time>2026-01-19T22:02:30Z</time>
      </trkpt>
      <trkpt lat="52.296189973130822" lon="7.82555996440351">
        <ele>67</ele>
        <time>2026-01-19T22:02:36Z</time>
      </trkpt>
      <trkpt lat="52.296179998666048" lon="7.824980020523071">
        <ele>67</ele>
        <time>2026-01-19T22:02:45Z</time>
      </trkpt>
      <trkpt lat="52.296189973130822" lon="7.824650024995208">
        <ele>67</ele>
        <time>2026-01-19T22:02:51Z</time>
      </trkpt>
      <trkpt lat="52.296230038627982" lon="7.823679987341166">
        <ele>68</ele>
        <time>2026-01-19T22:03:06Z</time>
      </trkpt>
      <trkpt lat="52.296259962022305" lon="7.822789996862412">
        <ele>68</ele>
        <time>2026-01-19T22:03:21Z</time>
      </trkpt>
      <trkpt lat="52.296279994770885" lon="7.822329998016357">
        <ele>70</ele>
        <time>2026-01-19T22:03:29Z</time>
      </trkpt>
      <trkpt lat="52.296349983662367" lon="7.820880012586713">
        <ele>72</ele>
        <time>2026-01-19T22:03:52Z</time>
      </trkpt>
      <trkpt lat="52.296359958127141" lon="7.820390006527305">
        <ele>72</ele>
        <time>2026-01-19T22:04:00Z</time>
      </trkpt>
      <trkpt lat="52.296340009197593" lon="7.820069985464215">
        <ele>72</ele>
        <time>2026-01-19T22:04:06Z</time>
      </trkpt>
      <trkpt lat="52.296230038627982" lon="7.819449976086617">
        <ele>75</ele>
        <time>2026-01-19T22:04:16Z</time>
      </trkpt>
      <trkpt lat="52.295859977602959" lon="7.818029997870326">
        <ele>77</ele>
        <time>2026-01-19T22:04:41Z</time>
      </trkpt>
      <trkpt lat="52.296259962022305" lon="7.816930040717125">
        <ele>76</ele>
        <time>2026-01-19T22:05:04Z</time>
      </trkpt>
      <trkpt lat="52.296470012515783" lon="7.81586998142302">
        <ele>76</ele>
        <time>2026-01-19T22:05:23Z</time>
      </trkpt>
      <trkpt lat="52.296990025788546" lon="7.815549960359931">
        <ele>74</ele>
        <time>2026-01-19T22:05:38Z</time>
      </trkpt>
      <trkpt lat="52.297520013526082" lon="7.815290037542582">
        <ele>77</ele>
        <time>2026-01-19T22:05:53Z</time>
      </trkpt>
      <trkpt lat="52.297669965773821" lon="7.815070012584329">
        <ele>77</ele>
        <time>2026-01-19T22:05:58Z</time>
      </trkpt>
      <trkpt lat="52.297820001840591" lon="7.814640020951629">
        <ele>77</ele>
        <time>2026-01-19T22:06:06Z</time>
      </trkpt>
      <trkpt lat="52.298259967938066" lon="7.813230017200112">
        <ele>81</ele>
        <time>2026-01-19T22:06:32Z</time>
      </trkpt>
      <trkpt lat="52.298430036753416" lon="7.812949977815151">
        <ele>81</ele>
        <time>2026-01-19T22:06:38Z</time>
      </trkpt>
      <trkpt lat="52.298619970679283" lon="7.812670022249222">
        <ele>85</ele>
        <time>2026-01-19T22:06:45Z</time>
      </trkpt>
      <trkpt lat="52.298839995637536" lon="7.812419990077615">
        <ele>85</ele>
        <time>2026-01-19T22:06:52Z</time>
      </trkpt>
      <trkpt lat="52.300900015980005" lon="7.811639970168471">
        <ele>80</ele>
        <time>2026-01-19T22:07:49Z</time>
      </trkpt>
      <trkpt lat="52.301999973133206" lon="7.811469985172153">
        <ele>76</ele>
        <time>2026-01-19T22:08:19Z</time>
      </trkpt>
      <trkpt lat="52.304029986262321" lon="7.811729991808534">
        <ele>69</ele>
        <time>2026-01-19T22:09:13Z</time>
      </trkpt>
      <trkpt lat="52.303780037909746" lon="7.810300039127469">
        <ele>69</ele>
        <time>2026-01-19T22:09:39Z</time>
      </trkpt>
      <trkpt lat="52.304710010066628" lon="7.810359969735146">
        <ele>69</ele>
        <time>2026-01-19T22:10:04Z</time>
      </trkpt>
      <trkpt lat="52.305130027234554" lon="7.810180010274053">
        <ele>69</ele>
        <time>2026-01-19T22:10:16Z</time>
      </trkpt>
      <trkpt lat="52.305349968373775" lon="7.810080014169216">
        <ele>69</ele>
        <time>2026-01-19T22:10:22Z</time>
      </trkpt>
      <trkpt lat="52.305760011076927" lon="7.8099599853158">
        <ele>67</ele>
        <time>2026-01-19T22:10:33Z</time>
      </trkpt>
      <trkpt lat="52.3059600032866" lon="7.80998001806438">
        <ele>67</ele>
        <time>2026-01-19T22:10:38Z</time>
      </trkpt>
      <trkpt lat="52.306989971548319" lon="7.810479998588562">
        <ele>68</ele>
        <time>2026-01-19T22:11:07Z</time>
      </trkpt>
      <trkpt lat="52.307620039209723" lon="7.810789961367846">
        <ele>66</ele>
        <time>2026-01-19T22:11:24Z</time>
      </trkpt>
      <trkpt lat="52.308009965345263" lon="7.810170035809279">
        <ele>64</ele>
        <time>2026-01-19T22:11:39Z</time>
      </trkpt>
      <trkpt lat="52.308210041373968" lon="7.809889996424317">
        <ele>64</ele>
        <time>2026-01-19T22:11:46Z</time>
      </trkpt>
      <trkpt lat="52.308789985254407" lon="7.809390015900135">
        <ele>64</ele>
        <time>2026-01-19T22:12:04Z</time>
      </trkpt>
      <trkpt lat="52.309200027957559" lon="7.809299994260073">
        <ele>64</ele>
        <time>2026-01-19T22:12:15Z</time>
      </trkpt>
      <trkpt lat="52.309660026803613" lon="7.809669971466065">
        <ele>64</ele>
        <time>2026-01-19T22:12:29Z</time>
      </trkpt>
      <trkpt lat="52.309920033439994" lon="7.809880021959543">
        <ele>65</ele>
        <time>2026-01-19T22:12:36Z</time>
      </trkpt>
      <trkpt lat="52.310459995642304" lon="7.810449991375208">
        <ele>65</ele>
        <time>2026-01-19T22:12:54Z</time>
      </trkpt>
      <trkpt lat="52.310740035027266" lon="7.811090033501387">
        <ele>66</ele>
        <time>2026-01-19T22:13:06Z</time>
      </trkpt>
      <trkpt lat="52.311170026659966" lon="7.811690010130405">
        <ele>66</ele>
        <time>2026-01-19T22:13:22Z</time>
      </trkpt>
      <trkpt lat="52.311410000547767" lon="7.811999972909689">
        <ele>64</ele>
        <time>2026-01-19T22:13:30Z</time>
      </trkpt>
      <trkpt lat="52.311830017715693" lon="7.81255996786058">
        <ele>64</ele>
        <time>2026-01-19T22:13:44Z</time>
      </trkpt>
      <trkpt lat="52.312710033729672" lon="7.812649989500642">
        <ele>63</ele>
        <time>2026-01-19T22:14:08Z</time>
      </trkpt>
      <trkpt lat="52.312920000404119" lon="7.812659963965416">
        <ele>63</ele>
        <time>2026-01-19T22:14:14Z</time>
      </trkpt>
      <trkpt lat="52.314999969676137" lon="7.81273003667593">
        <ele>64</ele>
        <time>2026-01-19T22:15:09Z</time>
      </trkpt>
      <trkpt lat="52.31521999463439" lon="7.812740011140704">
        <ele>64</ele>
        <time>2026-01-19T22:15:15Z</time>
      </trkpt>
      <trkpt lat="52.316609965637326" lon="7.812789967283607">
        <ele>63</ele>
        <time>2026-01-19T22:15:52Z</time>
      </trkpt>
      <trkpt lat="52.316739968955517" lon="7.811950016766787">
        <ele>63</ele>
        <time>2026-01-19T22:16:06Z</time>
      </trkpt>
      <trkpt lat="52.316769976168871" lon="7.810779986903071">
        <ele>62</ele>
        <time>2026-01-19T22:16:25Z</time>
      </trkpt>
      <trkpt lat="52.317250007763505" lon="7.809929978102446">
        <ele>62</ele>
        <time>2026-01-19T22:16:44Z</time>
      </trkpt>
      <trkpt lat="52.317549996078014" lon="7.809220030903816">
        <ele>63</ele>
        <time>2026-01-19T22:16:58Z</time>
      </trkpt>
      <trkpt lat="52.317670024931431" lon="7.808879977092147">
        <ele>63</ele>
        <time>2026-01-19T22:17:05Z</time>
      </trkpt>
      <trkpt lat="52.317900024354458" lon="7.808170029893518">
        <ele>62</ele>
        <time>2026-01-19T22:17:18Z</time>
      </trkpt>
      <trkpt lat="52.318200012668967" lon="7.808270025998354">
        <ele>62</ele>
        <time>2026-01-19T22:17:26Z</time>
      </trkpt>
      <trkpt lat="52.318469993770123" lon="7.808259967714548">
        <ele>62</ele>
        <time>2026-01-19T22:17:33Z</time>
      </trkpt>
      <trkpt lat="52.319090003147721" lon="7.807889990508556">
        <ele>60</ele>
        <time>2026-01-19T22:17:51Z</time>
      </trkpt>
      <trkpt lat="52.320079989731312" lon="7.807399984449148">
        <ele>62</ele>
        <time>2026-01-19T22:18:19Z</time>
      </trkpt>
      <trkpt lat="52.320449966937304" lon="7.807099996134639">
        <ele>62</ele>
        <time>2026-01-19T22:18:30Z</time>
      </trkpt>
      <trkpt lat="52.321499967947602" lon="7.806540001183748">
        <ele>61</ele>
        <time>2026-01-19T22:18:59Z</time>
      </trkpt>
      <trkpt lat="52.321810014545918" lon="7.806360041722655">
        <ele>61</ele>
        <time>2026-01-19T22:19:08Z</time>
      </trkpt>
      <trkpt lat="52.322110002860427" lon="7.806340008974075">
        <ele>61</ele>
        <time>2026-01-19T22:19:16Z</time>
      </trkpt>
      <trkpt lat="52.322860015556216" lon="7.806330034509301">
        <ele>60</ele>
        <time>2026-01-19T22:19:36Z</time>
      </trkpt>
      <trkpt lat="52.323959972709417" lon="7.806389965116978">
        <ele>58</ele>
        <time>2026-01-19T22:20:05Z</time>
      </trkpt>
      <trkpt lat="52.324849963188171" lon="7.806170023977757">
        <ele>58</ele>
        <time>2026-01-19T22:20:30Z</time>
      </trkpt>
      <trkpt lat="52.325590001419187" lon="7.807459998875856">
        <ele>56</ele>
        <time>2026-01-19T22:21:00Z</time>
      </trkpt>
      <trkpt lat="52.326279999688268" lon="7.809020038694143">
        <ele>55</ele>
        <time>2026-01-19T22:21:32Z</time>
      </trkpt>
      <trkpt lat="52.326530031859875" lon="7.809699978679419">
        <ele>55</ele>
        <time>2026-01-19T22:21:45Z</time>
      </trkpt>
      <trkpt lat="52.327079968526959" lon="7.811239985749126">
        <ele>54</ele>
        <time>2026-01-19T22:22:14Z</time>
      </trkpt>
      <trkpt lat="52.327239979058504" lon="7.811650028452277">
        <ele>54</ele>
        <time>2026-01-19T22:22:22Z</time>
      </trkpt>
      <trkpt lat="52.327409964054823" lon="7.81217004172504">
        <ele>54</ele>
        <time>2026-01-19T22:22:31Z</time>
      </trkpt>
      <trkpt lat="52.327799974009395" lon="7.813609968870878">
        <ele>54</ele>
        <time>2026-01-19T22:22:57Z</time>
      </trkpt>
      <trkpt lat="52.327880021184683" lon="7.813920015469194">
        <ele>54</ele>
        <time>2026-01-19T22:23:03Z</time>
      </trkpt>
      <trkpt lat="52.328700022771955" lon="7.816930040717125">
        <ele>53</ele>
        <time>2026-01-19T22:23:57Z</time>
      </trkpt>
      <trkpt lat="52.329139988869429" lon="7.819619961082935">
        <ele>54</ele>
        <time>2026-01-19T22:24:42Z</time>
      </trkpt>
      <trkpt lat="52.329339981079102" lon="7.820970034226775">
        <ele>56</ele>
        <time>2026-01-19T22:25:05Z</time>
      </trkpt>
      <trkpt lat="52.329390021041036" lon="7.821340011432767">
        <ele>56</ele>
        <time>2026-01-19T22:25:11Z</time>
      </trkpt>
      <trkpt lat="52.329430002719164" lon="7.821790035814047">
        <ele>56</ele>
        <time>2026-01-19T22:25:18Z</time>
      </trkpt>
      <trkpt lat="52.330129975453019" lon="7.822380037978292">
        <ele>60</ele>
        <time>2026-01-19T22:25:40Z</time>
      </trkpt>
      <trkpt lat="52.329390021041036" lon="7.823349991813302">
        <ele>61</ele>
        <time>2026-01-19T22:26:05Z</time>
      </trkpt>
      <trkpt lat="52.328229965642095" lon="7.824869966134429">
        <ele>64</ele>
        <time>2026-01-19T22:26:45Z</time>
      </trkpt>
      <trkpt lat="52.327910028398037" lon="7.825289983302355">
        <ele>67</ele>
        <time>2026-01-19T22:26:56Z</time>
      </trkpt>
      <trkpt lat="52.327690003439784" lon="7.825570022687316">
        <ele>67</ele>
        <time>2026-01-19T22:27:03Z</time>
      </trkpt>
      <trkpt lat="52.326870001852512" lon="7.826639972627163">
        <ele>66</ele>
        <time>2026-01-19T22:27:31Z</time>
      </trkpt>
      <trkpt lat="52.326709991320968" lon="7.826859997585416">
        <ele>66</ele>
        <time>2026-01-19T22:27:37Z</time>
      </trkpt>
      <trkpt lat="52.326100040227175" lon="7.827659966424108">
        <ele>64</ele>
        <time>2026-01-19T22:27:58Z</time>
      </trkpt>
      <trkpt lat="52.325520012527704" lon="7.828420037403703">
        <ele>66</ele>
        <time>2026-01-19T22:28:18Z</time>
      </trkpt>
      <trkpt lat="52.325169984251261" lon="7.82905999571085">
        <ele>66</ele>
        <time>2026-01-19T22:28:32Z</time>
      </trkpt>
      <trkpt lat="52.324779974296689" lon="7.830200018361211">
        <ele>68</ele>
        <time>2026-01-19T22:28:53Z</time>
      </trkpt>
      <trkpt lat="52.324739992618561" lon="7.830490032210946">
        <ele>68</ele>
        <time>2026-01-19T22:28:58Z</time>
      </trkpt>
      <trkpt lat="52.32460998930037" lon="7.832860015332699">
        <ele>73</ele>
        <time>2026-01-19T22:29:37Z</time>
      </trkpt>
      <trkpt lat="52.324619963765144" lon="7.833190010860562">
        <ele>73</ele>
        <time>2026-01-19T22:29:42Z</time>
      </trkpt>
      <trkpt lat="52.324700010940433" lon="7.834530025720596">
        <ele>78</ele>
        <time>2026-01-19T22:30:04Z</time>
      </trkpt>
      <trkpt lat="52.324730018153787" lon="7.835139976814389">
        <ele>78</ele>
        <time>2026-01-19T22:30:14Z</time>
      </trkpt>
      <trkpt lat="52.324779974296689" lon="7.835469972342253">
        <ele>81</ele>
        <time>2026-01-19T22:30:20Z</time>
      </trkpt>
      <trkpt lat="52.325209965929389" lon="7.837639963254333">
        <ele>82</ele>
        <time>2026-01-19T22:30:57Z</time>
      </trkpt>
      <trkpt lat="52.323840027675033" lon="7.841269997879863">
        <ele>77</ele>
        <time>2026-01-19T22:32:07Z</time>
      </trkpt>
      <trkpt lat="52.323669958859682" lon="7.841739971190691">
        <ele>77</ele>
        <time>2026-01-19T22:32:16Z</time>
      </trkpt>
      <trkpt lat="52.32319001108408" lon="7.843049978837371">
        <ele>75</ele>
        <time>2026-01-19T22:32:41Z</time>
      </trkpt>
      <trkpt lat="52.322590034455061" lon="7.844029990956187">
        <ele>71</ele>
        <time>2026-01-19T22:33:03Z</time>
      </trkpt>
      <trkpt lat="52.322140010073781" lon="7.844870025292039">
        <ele>68</ele>
        <time>2026-01-19T22:33:21Z</time>
      </trkpt>
      <trkpt lat="52.32158001512289" lon="7.845769990235567">
        <ele>68</ele>
        <time>2026-01-19T22:33:42Z</time>
      </trkpt>
      <trkpt lat="52.321110041812062" lon="7.846020022407174">
        <ele>66</ele>
        <time>2026-01-19T22:33:56Z</time>
      </trkpt>
      <trkpt lat="52.320990012958646" lon="7.846290003508329">
        <ele>66</ele>
        <time>2026-01-19T22:34:01Z</time>
      </trkpt>
      <trkpt lat="52.320620035752654" lon="7.847030041739345">
        <ele>65</ele>
        <time>2026-01-19T22:34:17Z</time>
      </trkpt>
      <trkpt lat="52.320360029116273" lon="7.848280034959316">
        <ele>66</ele>
        <time>2026-01-19T22:34:38Z</time>
      </trkpt>
      <trkpt lat="52.320300014689565" lon="7.848989982157946">
        <ele>66</ele>
        <time>2026-01-19T22:34:50Z</time>
      </trkpt>
      <trkpt lat="52.320330021902919" lon="7.849440006539226">
        <ele>66</ele>
        <time>2026-01-19T22:34:57Z</time>
      </trkpt>
      <trkpt lat="52.320379978045821" lon="7.849909979850054">
        <ele>67</ele>
        <time>2026-01-19T22:35:05Z</time>
      </trkpt>
      <trkpt lat="52.320230025798082" lon="7.850539963692427">
        <ele>67</ele>
        <time>2026-01-19T22:35:16Z</time>
      </trkpt>
      <trkpt lat="52.320030033588409" lon="7.851630030199885">
        <ele>65</ele>
        <time>2026-01-19T22:35:35Z</time>
      </trkpt>
      <trkpt lat="52.320349970832467" lon="7.852409966289997">
        <ele>65</ele>
        <time>2026-01-19T22:35:50Z</time>
      </trkpt>
      <trkpt lat="52.32054996304214" lon="7.852810034528375">
        <ele>63</ele>
        <time>2026-01-19T22:35:59Z</time>
      </trkpt>
      <trkpt lat="52.320660017430782" lon="7.853110022842884">
        <ele>63</ele>
        <time>2026-01-19T22:36:04Z</time>
      </trkpt>
      <trkpt lat="52.320219967514277" lon="7.853600028902292">
        <ele>63</ele>
        <time>2026-01-19T22:36:22Z</time>
      </trkpt>
      <trkpt lat="52.317129978910089" lon="7.852409966289997">
        <ele>67</ele>
        <time>2026-01-19T22:37:47Z</time>
      </trkpt>
      <trkpt lat="52.316950019448996" lon="7.853110022842884">
        <ele>66</ele>
        <time>2026-01-19T22:38:05Z</time>
      </trkpt>
      <trkpt lat="52.31695999391377" lon="7.854179972782731">
        <ele>65</ele>
        <time>2026-01-19T22:38:22Z</time>
      </trkpt>
      <trkpt lat="52.317040041089058" lon="7.854869971051812">
        <ele>65</ele>
        <time>2026-01-19T22:38:34Z</time>
      </trkpt>
      <trkpt lat="52.317199967801571" lon="7.855900023132563">
        <ele>66</ele>
        <time>2026-01-19T22:38:51Z</time>
      </trkpt>
      <trkpt lat="52.317319996654987" lon="7.856630003079772">
        <ele>66</ele>
        <time>2026-01-19T22:39:04Z</time>
      </trkpt>
      <trkpt lat="52.317399960011244" lon="7.857180023565888">
        <ele>69</ele>
        <time>2026-01-19T22:39:13Z</time>
      </trkpt>
      <trkpt lat="52.317470032721758" lon="7.857619989663363">
        <ele>69</ele>
        <time>2026-01-19T22:39:20Z</time>
      </trkpt>
      <trkpt lat="52.31751998886466" lon="7.858100021257997">
        <ele>69</ele>
        <time>2026-01-19T22:39:28Z</time>
      </trkpt>
      <trkpt lat="52.317629959434271" lon="7.859110040590167">
        <ele>69</ele>
        <time>2026-01-19T22:39:45Z</time>
      </trkpt>
      <trkpt lat="52.317719981074333" lon="7.85974002443254">
        <ele>69</ele>
        <time>2026-01-19T22:39:56Z</time>
      </trkpt>
      <trkpt lat="52.317859958857298" lon="7.860760018229485">
        <ele>69</ele>
        <time>2026-01-19T22:40:13Z</time>
      </trkpt>
      <trkpt lat="52.317989962175488" lon="7.861750004813075">
        <ele>69</ele>
        <time>2026-01-19T22:40:29Z</time>
      </trkpt>
      <trkpt lat="52.318209987133741" lon="7.862279992550612">
        <ele>69</ele>
        <time>2026-01-19T22:40:40Z</time>
      </trkpt>
      <trkpt lat="52.318449961021543" lon="7.862950041890144">
        <ele>70</ele>
        <time>2026-01-19T22:40:52Z</time>
      </trkpt>
      <trkpt lat="52.318880036473274" lon="7.863439964130521">
        <ele>70</ele>
        <time>2026-01-19T22:41:06Z</time>
      </trkpt>
      <trkpt lat="52.31842003762722" lon="7.86466003395617">
        <ele>70</ele>
        <time>2026-01-19T22:41:31Z</time>
      </trkpt>
      <trkpt lat="52.317870017141104" lon="7.865989990532398">
        <ele>72</ele>
        <time>2026-01-19T22:41:57Z</time>
      </trkpt>
      <trkpt lat="52.317730039358139" lon="7.866370026022196">
        <ele>72</ele>
        <time>2026-01-19T22:42:04Z</time>
      </trkpt>
      <trkpt lat="52.317640017718077" lon="7.866660039871931">
        <ele>73</ele>
        <time>2026-01-19T22:42:10Z</time>
      </trkpt>
      <trkpt lat="52.31751998886466" lon="7.867039991542697">
        <ele>73</ele>
        <time>2026-01-19T22:42:17Z</time>
      </trkpt>
      <trkpt lat="52.317310022190213" lon="7.867850018665195">
        <ele>73</ele>
        <time>2026-01-19T22:42:31Z</time>
      </trkpt>
      <trkpt lat="52.317059990018606" lon="7.868889961391687">
        <ele>71</ele>
        <time>2026-01-19T22:42:49Z</time>
      </trkpt>
      <trkpt lat="52.316820016130805" lon="7.869790010154247">
        <ele>67</ele>
        <time>2026-01-19T22:43:05Z</time>
      </trkpt>
      <trkpt lat="52.31666000559926" lon="7.870370037853718">
        <ele>67</ele>
        <time>2026-01-19T22:43:16Z</time>
      </trkpt>
      <trkpt lat="52.316439980641007" lon="7.871079985052347">
        <ele>68</ele>
        <time>2026-01-19T22:43:29Z</time>
      </trkpt>
      <trkpt lat="52.316200006753206" lon="7.871890012174845">
        <ele>68</ele>
        <time>2026-01-19T22:43:44Z</time>
      </trkpt>
      <trkpt lat="52.316000014543533" lon="7.872329978272319">
        <ele>67</ele>
        <time>2026-01-19T22:43:52Z</time>
      </trkpt>
      <trkpt lat="52.315870011225343" lon="7.872550003230572">
        <ele>67</ele>
        <time>2026-01-19T22:43:58Z</time>
      </trkpt>
      <trkpt lat="52.315630037337542" lon="7.872810009866953">
        <ele>67</ele>
        <time>2026-01-19T22:44:05Z</time>
      </trkpt>
      <trkpt lat="52.315310016274452" lon="7.872930038720369">
        <ele>67</ele>
        <time>2026-01-19T22:44:14Z</time>
      </trkpt>
      <trkpt lat="52.315099965780973" lon="7.872959962114692">
        <ele>68</ele>
        <time>2026-01-19T22:44:20Z</time>
      </trkpt>
      <trkpt lat="52.314629992470145" lon="7.872989969328046">
        <ele>68</ele>
        <time>2026-01-19T22:44:32Z</time>
      </trkpt>
      <trkpt lat="52.314309971407056" lon="7.873000027611852">
        <ele>72</ele>
        <time>2026-01-19T22:44:41Z</time>
      </trkpt>
      <trkpt lat="52.314049964770675" lon="7.873010002076626">
        <ele>72</ele>
        <time>2026-01-19T22:44:48Z</time>
      </trkpt>
      <trkpt lat="52.31390998698771" lon="7.872819984331727">
        <ele>72</ele>
        <time>2026-01-19T22:44:54Z</time>
      </trkpt>
      <trkpt lat="52.313719969242811" lon="7.872849991545081">
        <ele>72</ele>
        <time>2026-01-19T22:44:59Z</time>
      </trkpt>
      <trkpt lat="52.313730027526617" lon="7.873160038143396">
        <ele>72</ele>
        <time>2026-01-19T22:45:05Z</time>
      </trkpt>
      <trkpt lat="52.313770009204745" lon="7.873370004817843">
        <ele>72</ele>
        <time>2026-01-19T22:45:10Z</time>
      </trkpt>
      <trkpt lat="52.313630031421781" lon="7.873960006982088">
        <ele>72</ele>
        <time>2026-01-19T22:45:20Z</time>
      </trkpt>
      <trkpt lat="52.313449988141656" lon="7.874599965289235">
        <ele>74</ele>
        <time>2026-01-19T22:45:32Z</time>
      </trkpt>
      <trkpt lat="52.313370024785399" lon="7.87491001188755">
        <ele>74</ele>
        <time>2026-01-19T22:45:37Z</time>
      </trkpt>
      <trkpt lat="52.313010022044182" lon="7.876280033960939">
        <ele>76</ele>
        <time>2026-01-19T22:46:02Z</time>
      </trkpt>
      <trkpt lat="52.312920000404119" lon="7.876680018380284">
        <ele>76</ele>
        <time>2026-01-19T22:46:09Z</time>
      </trkpt>
      <trkpt lat="52.312880018725991" lon="7.87697003223002">
        <ele>76</ele>
        <time>2026-01-19T22:46:13Z</time>
      </trkpt>
      <trkpt lat="52.312859985977411" lon="7.877310002222657">
        <ele>76</ele>
        <time>2026-01-19T22:46:19Z</time>
      </trkpt>
      <trkpt lat="52.312850011512637" lon="7.877709986642003">
        <ele>77</ele>
        <time>2026-01-19T22:46:26Z</time>
      </trkpt>
      <trkpt lat="52.312859985977411" lon="7.878269981592894">
        <ele>77</ele>
        <time>2026-01-19T22:46:35Z</time>
      </trkpt>
      <trkpt lat="52.31289996765554" lon="7.878650017082691">
        <ele>79</ele>
        <time>2026-01-19T22:46:41Z</time>
      </trkpt>
      <trkpt lat="52.312989989295602" lon="7.879359964281321">
        <ele>79</ele>
        <time>2026-01-19T22:46:53Z</time>
      </trkpt>
      <trkpt lat="52.31216998770833" lon="7.879440011456609">
        <ele>84</ele>
        <time>2026-01-19T22:47:15Z</time>
      </trkpt>
      <trkpt lat="52.311790036037564" lon="7.879430036991835">
        <ele>84</ele>
        <time>2026-01-19T22:47:25Z</time>
      </trkpt>
      <trkpt lat="52.31158996000886" lon="7.879400029778481">
        <ele>85</ele>
        <time>2026-01-19T22:47:30Z</time>
      </trkpt>
      <trkpt lat="52.311359960585833" lon="7.879359964281321">
        <ele>85</ele>
        <time>2026-01-19T22:47:37Z</time>
      </trkpt>
      <trkpt lat="52.310970034450293" lon="7.879389971494675">
        <ele>85</ele>
        <time>2026-01-19T22:47:47Z</time>
      </trkpt>
      <trkpt lat="52.310390006750822" lon="7.879449985921383">
        <ele>84</ele>
        <time>2026-01-19T22:48:02Z</time>
      </trkpt>
      <trkpt lat="52.31029998511076" lon="7.879609996452928">
        <ele>84</ele>
        <time>2026-01-19T22:48:07Z</time>
      </trkpt>
      <trkpt lat="52.310350025072694" lon="7.880469979718328">
        <ele>81</ele>
        <time>2026-01-19T22:48:21Z</time>
      </trkpt>
      <trkpt lat="52.310390006750822" lon="7.881159977987409">
        <ele>81</ele>
        <time>2026-01-19T22:48:33Z</time>
      </trkpt>
      <trkpt lat="52.310499977320433" lon="7.882899977266789">
        <ele>80</ele>
        <time>2026-01-19T22:49:01Z</time>
      </trkpt>
      <trkpt lat="52.310510035604239" lon="7.883210023865104">
        <ele>80</ele>
        <time>2026-01-19T22:49:06Z</time>
      </trkpt>
      <trkpt lat="52.310539958998561" lon="7.88361000828445">
        <ele>80</ele>
        <time>2026-01-19T22:49:13Z</time>
      </trkpt>
      <trkpt lat="52.310410039499402" lon="7.884269999340177">
        <ele>80</ele>
        <time>2026-01-19T22:49:25Z</time>
      </trkpt>
      <trkpt lat="52.310220021754503" lon="7.884739972651005">
        <ele>80</ele>
        <time>2026-01-19T22:49:34Z</time>
      </trkpt>
      <trkpt lat="52.309920033439994" lon="7.885410021990538">
        <ele>77</ele>
        <time>2026-01-19T22:49:48Z</time>
      </trkpt>
      <trkpt lat="52.309639994055033" lon="7.886109994724393">
        <ele>77</ele>
        <time>2026-01-19T22:50:02Z</time>
      </trkpt>
      <trkpt lat="52.309019984677434" lon="7.887610020115972">
        <ele>74</ele>
        <time>2026-01-19T22:50:31Z</time>
      </trkpt>
      <trkpt lat="52.308499971404672" lon="7.888920027762651">
        <ele>73</ele>
        <time>2026-01-19T22:50:57Z</time>
      </trkpt>
      <trkpt lat="52.308190008625388" lon="7.889569960534573">
        <ele>73</ele>
        <time>2026-01-19T22:51:10Z</time>
      </trkpt>
      <trkpt lat="52.307969983667135" lon="7.889859974384308">
        <ele>73</ele>
        <time>2026-01-19T22:51:18Z</time>
      </trkpt>
      <trkpt lat="52.307449970394373" lon="7.890029959380627">
        <ele>70</ele>
        <time>2026-01-19T22:51:32Z</time>
      </trkpt>
      <trkpt lat="52.3072499781847" lon="7.890300024300814">
        <ele>70</ele>
        <time>2026-01-19T22:51:39Z</time>
      </trkpt>
      <trkpt lat="52.307130033150315" lon="7.891069985926151">
        <ele>70</ele>
        <time>2026-01-19T22:51:52Z</time>
      </trkpt>
      <trkpt lat="52.307019978761673" lon="7.891480028629303">
        <ele>70</ele>
        <time>2026-01-19T22:51:59Z</time>
      </trkpt>
      <trkpt lat="52.306870026513934" lon="7.891750009730458">
        <ele>70</ele>
        <time>2026-01-19T22:52:05Z</time>
      </trkpt>
      <trkpt lat="52.306599961593747" lon="7.892240015789866">
        <ele>67</ele>
        <time>2026-01-19T22:52:16Z</time>
      </trkpt>
      <trkpt lat="52.306159995496273" lon="7.892779977992177">
        <ele>67</ele>
        <time>2026-01-19T22:52:31Z</time>
      </trkpt>
      <trkpt lat="52.305390033870935" lon="7.893369980156422">
        <ele>68</ele>
        <time>2026-01-19T22:52:54Z</time>
      </trkpt>
      <trkpt lat="52.304229978471994" lon="7.894640006124973">
        <ele>63</ele>
        <time>2026-01-19T22:53:31Z</time>
      </trkpt>
      <trkpt lat="52.303869975730777" lon="7.895009983330965">
        <ele>63</ele>
        <time>2026-01-19T22:53:42Z</time>
      </trkpt>
      <trkpt lat="52.303439984098077" lon="7.895379960536957">
        <ele>63</ele>
        <time>2026-01-19T22:53:55Z</time>
      </trkpt>
      <trkpt lat="52.302710004150867" lon="7.895920006558299">
        <ele>62</ele>
        <time>2026-01-19T22:54:17Z</time>
      </trkpt>
      <trkpt lat="52.302419990301132" lon="7.896280009299517">
        <ele>60</ele>
        <time>2026-01-19T22:54:26Z</time>
      </trkpt>
      <trkpt lat="52.302240030840039" lon="7.896510008722544">
        <ele>60</ele>
        <time>2026-01-19T22:54:33Z</time>
      </trkpt>
      <trkpt lat="52.302069962024689" lon="7.896740008145571">
        <ele>60</ele>
        <time>2026-01-19T22:54:38Z</time>
      </trkpt>
      <trkpt lat="52.301550032570958" lon="7.897499995306134">
        <ele>61</ele>
        <time>2026-01-19T22:54:57Z</time>
      </trkpt>
      <trkpt lat="52.300730030983686" lon="7.898700032383204">
        <ele>62</ele>
        <time>2026-01-19T22:55:26Z</time>
      </trkpt>
      <trkpt lat="52.300150003284216" lon="7.899550041183829">
        <ele>61</ele>
        <time>2026-01-19T22:55:47Z</time>
      </trkpt>
      <trkpt lat="52.299810033291578" lon="7.900280021131039">
        <ele>61</ele>
        <time>2026-01-19T22:56:02Z</time>
      </trkpt>
      <trkpt lat="52.298589963465929" lon="7.902020020410419">
        <ele>60</ele>
        <time>2026-01-19T22:56:46Z</time>
      </trkpt>
      <trkpt lat="52.298319982364774" lon="7.902580015361309">
        <ele>60</ele>
        <time>2026-01-19T22:56:57Z</time>
      </trkpt>
      <trkpt lat="52.298110015690327" lon="7.903219973668456">
        <ele>60</ele>
        <time>2026-01-19T22:57:09Z</time>
      </trkpt>
      <trkpt lat="52.29740995913744" lon="7.905730018392205">
        <ele>63</ele>
        <time>2026-01-19T22:57:54Z</time>
      </trkpt>
      <trkpt lat="52.297280039638281" lon="7.906229998916388">
        <ele>63</ele>
        <time>2026-01-19T22:58:03Z</time>
      </trkpt>
      <trkpt lat="52.296930011361837" lon="7.907349988818169">
        <ele>64</ele>
        <time>2026-01-19T22:58:24Z</time>
      </trkpt>
      <trkpt lat="52.296560034155846" lon="7.908409964293242">
        <ele>64</ele>
        <time>2026-01-19T22:58:44Z</time>
      </trkpt>
      <trkpt lat="52.296379990875721" lon="7.90892000310123">
        <ele>62</ele>
        <time>2026-01-19T22:58:53Z</time>
      </trkpt>
      <trkpt lat="52.295929966494441" lon="7.909890040755272">
        <ele>61</ele>
        <time>2026-01-19T22:59:13Z</time>
      </trkpt>
      <trkpt lat="52.29571002535522" lon="7.910139989107847">
        <ele>61</ele>
        <time>2026-01-19T22:59:20Z</time>
      </trkpt>
      <trkpt lat="52.295290008187294" lon="7.910399995744228">
        <ele>61</ele>
        <time>2026-01-19T22:59:32Z</time>
      </trkpt>
      <trkpt lat="52.294939979910851" lon="7.910629995167255">
        <ele>61</ele>
        <time>2026-01-19T22:59:42Z</time>
      </trkpt>
      <trkpt lat="52.294690031558275" lon="7.91076997295022">
        <ele>61</ele>
        <time>2026-01-19T22:59:49Z</time>
      </trkpt>
      <trkpt lat="52.294760020449758" lon="7.911350000649691">
        <ele>60</ele>
        <time>2026-01-19T22:59:59Z</time>
      </trkpt>
      <trkpt lat="52.294779969379306" lon="7.911730036139488">
        <ele>60</ele>
        <time>2026-01-19T23:00:05Z</time>
      </trkpt>
      <trkpt lat="52.294749962165952" lon="7.912119962275028">
        <ele>60</ele>
        <time>2026-01-19T23:00:12Z</time>
      </trkpt>
      <trkpt lat="52.294119978323579" lon="7.913099974393845">
        <ele>61</ele>
        <time>2026-01-19T23:00:35Z</time>
      </trkpt>
      <trkpt lat="52.293570041656494" lon="7.913930034264922">
        <ele>64</ele>
        <time>2026-01-19T23:00:55Z</time>
      </trkpt>
      <trkpt lat="52.293210038915277" lon="7.91442004032433">
        <ele>64</ele>
        <time>2026-01-19T23:01:08Z</time>
      </trkpt>
      <trkpt lat="52.293029995635152" lon="7.914660014212132">
        <ele>64</ele>
        <time>2026-01-19T23:01:14Z</time>
      </trkpt>
      <trkpt lat="52.292790021747351" lon="7.914969976991415">
        <ele>68</ele>
        <time>2026-01-19T23:01:22Z</time>
      </trkpt>
      <trkpt lat="52.29263998568058" lon="7.915159994736314">
        <ele>68</ele>
        <time>2026-01-19T23:01:27Z</time>
      </trkpt>
      <trkpt lat="52.292579971253872" lon="7.915589986369014">
        <ele>68</ele>
        <time>2026-01-19T23:01:35Z</time>
      </trkpt>
      <trkpt lat="52.293550008907914" lon="7.918560029938817">
        <ele>66</ele>
        <time>2026-01-19T23:02:30Z</time>
      </trkpt>
      <trkpt lat="52.293729968369007" lon="7.91919001378119">
        <ele>64</ele>
        <time>2026-01-19T23:02:41Z</time>
      </trkpt>
      <trkpt lat="52.293770033866167" lon="7.919740034267306">
        <ele>64</ele>
        <time>2026-01-19T23:02:50Z</time>
      </trkpt>
      <trkpt lat="52.293699961155653" lon="7.920319978147745">
        <ele>64</ele>
        <time>2026-01-19T23:03:00Z</time>
      </trkpt>
      <trkpt lat="52.293550008907914" lon="7.920779976993799">
        <ele>64</ele>
        <time>2026-01-19T23:03:09Z</time>
      </trkpt>
      <trkpt lat="52.293389998376369" lon="7.921160012483597">
        <ele>64</ele>
        <time>2026-01-19T23:03:16Z</time>
      </trkpt>
      <trkpt lat="52.293190006166697" lon="7.921650018543005">
        <ele>61</ele>
        <time>2026-01-19T23:03:26Z</time>
      </trkpt>
      <trkpt lat="52.293029995635152" lon="7.922050002962351">
        <ele>61</ele>
        <time>2026-01-19T23:03:34Z</time>
      </trkpt>
      <trkpt lat="52.29293997399509" lon="7.922470020130277">
        <ele>61</ele>
        <time>2026-01-19T23:03:41Z</time>
      </trkpt>
      <trkpt lat="52.292899992316961" lon="7.923279963433743">
        <ele>61</ele>
        <time>2026-01-19T23:03:54Z</time>
      </trkpt>
      <trkpt lat="52.29296000674367" lon="7.923699980601668">
        <ele>61</ele>
        <time>2026-01-19T23:04:01Z</time>
      </trkpt>
      <trkpt lat="52.293199980631471" lon="7.924059983342886">
        <ele>61</ele>
        <time>2026-01-19T23:04:10Z</time>
      </trkpt>
      <trkpt lat="52.293280027806759" lon="7.924310015514493">
        <ele>61</ele>
        <time>2026-01-19T23:04:15Z</time>
      </trkpt>
      <trkpt lat="52.293290002271533" lon="7.924670018255711">
        <ele>61</ele>
        <time>2026-01-19T23:04:21Z</time>
      </trkpt>
      <trkpt lat="52.292990013957024" lon="7.924900017678738">
        <ele>61</ele>
        <time>2026-01-19T23:04:31Z</time>
      </trkpt>
      <trkpt lat="52.292620036751032" lon="7.925019962713122">
        <ele>60</ele>
        <time>2026-01-19T23:04:42Z</time>
      </trkpt>
      <trkpt lat="52.292390037328005" lon="7.925149966031313">
        <ele>60</ele>
        <time>2026-01-19T23:04:48Z</time>
      </trkpt>
      <trkpt lat="52.292270008474588" lon="7.925509968772531">
        <ele>60</ele>
        <time>2026-01-19T23:04:57Z</time>
      </trkpt>
      <trkpt lat="52.292060041800141" lon="7.925699986517429">
        <ele>61</ele>
        <time>2026-01-19T23:05:04Z</time>
      </trkpt>
      <trkpt lat="52.291879998520017" lon="7.925920011475682">
        <ele>61</ele>
        <time>2026-01-19T23:05:10Z</time>
      </trkpt>
      <trkpt lat="52.291719987988472" lon="7.926150010898709">
        <ele>61</ele>
        <time>2026-01-19T23:05:15Z</time>
      </trkpt>
      <trkpt lat="52.291580010205507" lon="7.92641001753509">
        <ele>61</ele>
        <time>2026-01-19T23:05:21Z</time>
      </trkpt>
      <trkpt lat="52.291380017995834" lon="7.926870016381145">
        <ele>62</ele>
        <time>2026-01-19T23:05:30Z</time>
      </trkpt>
      <trkpt lat="52.291269963607192" lon="7.927149971947074">
        <ele>62</ele>
        <time>2026-01-19T23:05:36Z</time>
      </trkpt>
      <trkpt lat="52.291150018572807" lon="7.927409978583455">
        <ele>62</ele>
        <time>2026-01-19T23:05:41Z</time>
      </trkpt>
      <trkpt lat="52.290980033576488" lon="7.927709966897965">
        <ele>62</ele>
        <time>2026-01-19T23:05:48Z</time>
      </trkpt>
      <trkpt lat="52.29076998308301" lon="7.928010039031506">
        <ele>61</ele>
        <time>2026-01-19T23:05:55Z</time>
      </trkpt>
      <trkpt lat="52.290590023621917" lon="7.928220005705953">
        <ele>61</ele>
        <time>2026-01-19T23:06:01Z</time>
      </trkpt>
      <trkpt lat="52.29036002419889" lon="7.928399965167046">
        <ele>61</ele>
        <time>2026-01-19T23:06:08Z</time>
      </trkpt>
      <trkpt lat="52.290170006453991" lon="7.928510019555688">
        <ele>61</ele>
        <time>2026-01-19T23:06:13Z</time>
      </trkpt>
      <trkpt lat="52.289979988709092" lon="7.928589982911944">
        <ele>61</ele>
        <time>2026-01-19T23:06:19Z</time>
      </trkpt>
      <trkpt lat="52.289670025929809" lon="7.928649997338653">
        <ele>61</ele>
        <time>2026-01-19T23:06:27Z</time>
      </trkpt>
      <trkpt lat="52.289210027083755" lon="7.928610015660524">
        <ele>62</ele>
        <time>2026-01-19T23:06:39Z</time>
      </trkpt>
      <trkpt lat="52.288379967212677" lon="7.9284299723804">
        <ele>61</ele>
        <time>2026-01-19T23:07:02Z</time>
      </trkpt>
      <trkpt lat="52.288420032709837" lon="7.928840015083551">
        <ele>61</ele>
        <time>2026-01-19T23:07:09Z</time>
      </trkpt>
      <trkpt lat="52.288569984957576" lon="7.929119970649481">
        <ele>61</ele>
        <time>2026-01-19T23:07:15Z</time>
      </trkpt>
      <trkpt lat="52.288739969953895" lon="7.929239999502897">
        <ele>61</ele>
        <time>2026-01-19T23:07:20Z</time>
      </trkpt>
      <trkpt lat="52.28905001655221" lon="7.929209992289543">
        <ele>62</ele>
        <time>2026-01-19T23:07:28Z</time>
      </trkpt>
      <trkpt lat="52.289659967646003" lon="7.929040007293224">
        <ele>62</ele>
        <time>2026-01-19T23:07:45Z</time>
      </trkpt>
      <trkpt lat="52.290130024775863" lon="7.928889971226454">
        <ele>62</ele>
        <time>2026-01-19T23:07:57Z</time>
      </trkpt>
      <trkpt lat="52.290369998663664" lon="7.928780000656843">
        <ele>62</ele>
        <time>2026-01-19T23:08:04Z</time>
      </trkpt>
      <trkpt lat="52.290590023621917" lon="7.928640022873879">
        <ele>62</ele>
        <time>2026-01-19T23:08:10Z</time>
      </trkpt>
      <trkpt lat="52.290820023044944" lon="7.928459979593754">
        <ele>62</ele>
        <time>2026-01-19T23:08:17Z</time>
      </trkpt>
      <trkpt lat="52.291069971397519" lon="7.928480012342334">
        <ele>62</ele>
        <time>2026-01-19T23:08:24Z</time>
      </trkpt>
      <trkpt lat="52.291250014677644" lon="7.928659971803427">
        <ele>62</ele>
        <time>2026-01-19T23:08:30Z</time>
      </trkpt>
      <trkpt lat="52.292109997943044" lon="7.930650003254414">
        <ele>61</ele>
        <time>2026-01-19T23:09:09Z</time>
      </trkpt>
      <trkpt lat="52.292360030114651" lon="7.931349975988269">
        <ele>61</ele>
        <time>2026-01-19T23:09:23Z</time>
      </trkpt>
      <trkpt lat="52.292430019006133" lon="7.931709978729487">
        <ele>60</ele>
        <time>2026-01-19T23:09:29Z</time>
      </trkpt>
      <trkpt lat="52.291949987411499" lon="7.934750011190772">
        <ele>60</ele>
        <time>2026-01-19T23:10:20Z</time>
      </trkpt>
      <trkpt lat="52.291719987988472" lon="7.936729984357953">
        <ele>62</ele>
        <time>2026-01-19T23:10:53Z</time>
      </trkpt>
      <trkpt lat="52.29162996634841" lon="7.937089987099171">
        <ele>62</ele>
        <time>2026-01-19T23:11:00Z</time>
      </trkpt>
      <trkpt lat="52.291510021314025" lon="7.938079973682761">
        <ele>63</ele>
        <time>2026-01-19T23:11:16Z</time>
      </trkpt>
      <trkpt lat="52.291419999673963" lon="7.939270036295056">
        <ele>63</ele>
        <time>2026-01-19T23:11:36Z</time>
      </trkpt>
      <trkpt lat="52.291340036317706" lon="7.940260022878647">
        <ele>65</ele>
        <time>2026-01-19T23:11:52Z</time>
      </trkpt>
      <trkpt lat="52.291289996355772" lon="7.940929988399148">
        <ele>65</ele>
        <time>2026-01-19T23:12:03Z</time>
      </trkpt>
      <trkpt lat="52.29119997471571" lon="7.941600037738681">
        <ele>63</ele>
        <time>2026-01-19T23:12:14Z</time>
      </trkpt>
      <trkpt lat="52.291090004146099" lon="7.942279977723956">
        <ele>63</ele>
        <time>2026-01-19T23:12:26Z</time>
      </trkpt>
      <trkpt lat="52.291010040789843" lon="7.94276000931859">
        <ele>61</ele>
        <time>2026-01-19T23:12:34Z</time>
      </trkpt>
      <trkpt lat="52.290950026363134" lon="7.943310029804707">
        <ele>61</ele>
        <time>2026-01-19T23:12:43Z</time>
      </trkpt>
      <trkpt lat="52.290960000827909" lon="7.94364002533257">
        <ele>61</ele>
        <time>2026-01-19T23:12:48Z</time>
      </trkpt>
      <trkpt lat="52.291129985824227" lon="7.945029996335506">
        <ele>59</ele>
        <time>2026-01-19T23:13:12Z</time>
      </trkpt>
      <trkpt lat="52.291139960289001" lon="7.94538002461195">
        <ele>59</ele>
        <time>2026-01-19T23:13:17Z</time>
      </trkpt>
      <trkpt lat="52.291829958558083" lon="7.946010008454323">
        <ele>61</ele>
        <time>2026-01-19T23:13:40Z</time>
      </trkpt>
      <trkpt lat="52.292300015687943" lon="7.946319971233606">
        <ele>64</ele>
        <time>2026-01-19T23:13:54Z</time>
      </trkpt>
      <trkpt lat="52.292890017852187" lon="7.94669003225863">
        <ele>64</ele>
        <time>2026-01-19T23:14:11Z</time>
      </trkpt>
      <trkpt lat="52.29306997731328" lon="7.946849958971143">
        <ele>64</ele>
        <time>2026-01-19T23:14:16Z</time>
      </trkpt>
      <trkpt lat="52.293109958991408" lon="7.947129998356104">
        <ele>64</ele>
        <time>2026-01-19T23:14:21Z</time>
      </trkpt>
      <trkpt lat="52.292929999530315" lon="7.948460038751364">
        <ele>63</ele>
        <time>2026-01-19T23:14:44Z</time>
      </trkpt>
      <trkpt lat="52.292820028960705" lon="7.948800008744001">
        <ele>63</ele>
        <time>2026-01-19T23:14:50Z</time>
      </trkpt>
      <trkpt lat="52.292690025642514" lon="7.949020033702254">
        <ele>63</ele>
        <time>2026-01-19T23:14:55Z</time>
      </trkpt>
      <trkpt lat="52.292339997366071" lon="7.949569970369339">
        <ele>67</ele>
        <time>2026-01-19T23:15:08Z</time>
      </trkpt>
      <trkpt lat="52.2921899612993" lon="7.949940031394362">
        <ele>67</ele>
        <time>2026-01-19T23:15:15Z</time>
      </trkpt>
      <trkpt lat="52.292000027373433" lon="7.950379997491837">
        <ele>67</ele>
        <time>2026-01-19T23:15:24Z</time>
      </trkpt>
      <trkpt lat="52.291810009628534" lon="7.950670011341572">
        <ele>69</ele>
        <time>2026-01-19T23:15:31Z</time>
      </trkpt>
      <trkpt lat="52.291740020737052" lon="7.951020039618015">
        <ele>69</ele>
        <time>2026-01-19T23:15:37Z</time>
      </trkpt>
      <trkpt lat="52.2917599696666" lon="7.951320027932525">
        <ele>69</ele>
        <time>2026-01-19T23:15:42Z</time>
      </trkpt>
      <trkpt lat="52.291819984093308" lon="7.951790001243353">
        <ele>69</ele>
        <time>2026-01-19T23:15:50Z</time>
      </trkpt>
      <trkpt lat="52.291859965771437" lon="7.952150003984571">
        <ele>70</ele>
        <time>2026-01-19T23:15:56Z</time>
      </trkpt>
      <trkpt lat="52.291879998520017" lon="7.952500032261014">
        <ele>70</ele>
        <time>2026-01-19T23:16:02Z</time>
      </trkpt>
      <trkpt lat="52.291879998520017" lon="7.953000012785196">
        <ele>70</ele>
        <time>2026-01-19T23:16:10Z</time>
      </trkpt>
      <trkpt lat="52.291849991306663" lon="7.95346001163125">
        <ele>70</ele>
        <time>2026-01-19T23:16:17Z</time>
      </trkpt>
      <trkpt lat="52.291819984093308" lon="7.95378003269434">
        <ele>72</ele>
        <time>2026-01-19T23:16:23Z</time>
      </trkpt>
      <trkpt lat="52.29180003516376" lon="7.95421002432704">
        <ele>72</ele>
        <time>2026-01-19T23:16:30Z</time>
      </trkpt>
      <trkpt lat="52.291819984093308" lon="7.954670023173094">
        <ele>72</ele>
        <time>2026-01-19T23:16:37Z</time>
      </trkpt>
      <trkpt lat="52.291840016841888" lon="7.955100014805794">
        <ele>72</ele>
        <time>2026-01-19T23:16:44Z</time>
      </trkpt>
      <trkpt lat="52.291889972984791" lon="7.955449959263206">
        <ele>79</ele>
        <time>2026-01-19T23:16:50Z</time>
      </trkpt>
      <trkpt lat="52.291970020160079" lon="7.955780038610101">
        <ele>79</ele>
        <time>2026-01-19T23:16:56Z</time>
      </trkpt>
      <trkpt lat="52.292260034009814" lon="7.95651001855731">
        <ele>79</ele>
        <time>2026-01-19T23:17:10Z</time>
      </trkpt>
      <trkpt lat="52.292349971830845" lon="7.956770025193691">
        <ele>86</ele>
        <time>2026-01-19T23:17:15Z</time>
      </trkpt>
      <trkpt lat="52.292449967935681" lon="7.95721996575594">
        <ele>86</ele>
        <time>2026-01-19T23:17:23Z</time>
      </trkpt>
      <trkpt lat="52.29296000674367" lon="7.960339961573482">
        <ele>93</ele>
        <time>2026-01-19T23:18:16Z</time>
      </trkpt>
      <trkpt lat="52.293039970099926" lon="7.960880007594824">
        <ele>93</ele>
        <time>2026-01-19T23:18:25Z</time>
      </trkpt>
      <trkpt lat="52.293060002848506" lon="7.961189970374107">
        <ele>91</ele>
        <time>2026-01-19T23:18:30Z</time>
      </trkpt>
      <trkpt lat="52.293060002848506" lon="7.961519965901971">
        <ele>91</ele>
        <time>2026-01-19T23:18:35Z</time>
      </trkpt>
      <trkpt lat="52.293029995635152" lon="7.961990023031831">
        <ele>91</ele>
        <time>2026-01-19T23:18:43Z</time>
      </trkpt>
      <trkpt lat="52.292999988421798" lon="7.962369974702597">
        <ele>91</ele>
        <time>2026-01-19T23:18:49Z</time>
      </trkpt>
      <trkpt lat="52.29296000674367" lon="7.962789991870523">
        <ele>91</ele>
        <time>2026-01-19T23:18:56Z</time>
      </trkpt>
      <trkpt lat="52.292899992316961" lon="7.963389968499541">
        <ele>91</ele>
        <time>2026-01-19T23:19:06Z</time>
      </trkpt>
      <trkpt lat="52.292879959568381" lon="7.963849967345595">
        <ele>91</ele>
        <time>2026-01-19T23:19:14Z</time>
      </trkpt>
      <trkpt lat="52.292879959568381" lon="7.965080011636019">
        <ele>96</ele>
        <time>2026-01-19T23:19:34Z</time>
      </trkpt>
      <trkpt lat="52.292879959568381" lon="7.965909987688065">
        <ele>96</ele>
        <time>2026-01-19T23:19:47Z</time>
      </trkpt>
      <trkpt lat="52.292869985103607" lon="7.966959988698363">
        <ele>99</ele>
        <time>2026-01-19T23:20:04Z</time>
      </trkpt>
      <trkpt lat="52.292869985103607" lon="7.967370031401515">
        <ele>99</ele>
        <time>2026-01-19T23:20:11Z</time>
      </trkpt>
      <trkpt lat="52.292860010638833" lon="7.967840004712343">
        <ele>100</ele>
        <time>2026-01-19T23:20:19Z</time>
      </trkpt>
      <trkpt lat="52.292860010638833" lon="7.968149967491627">
        <ele>100</ele>
        <time>2026-01-19T23:20:24Z</time>
      </trkpt>
      <trkpt lat="52.292869985103607" lon="7.968490021303296">
        <ele>100</ele>
        <time>2026-01-19T23:20:30Z</time>
      </trkpt>
      <trkpt lat="52.292879959568381" lon="7.970139998942614">
        <ele>96</ele>
        <time>2026-01-19T23:20:56Z</time>
      </trkpt>
      <trkpt lat="52.292879959568381" lon="7.970730001106858">
        <ele>96</ele>
        <time>2026-01-19T23:21:06Z</time>
      </trkpt>
      <trkpt lat="52.292890017852187" lon="7.971069971099496">
        <ele>90</ele>
        <time>2026-01-19T23:21:12Z</time>
      </trkpt>
      <trkpt lat="52.29306997731328" lon="7.973729968070984">
        <ele>87</ele>
        <time>2026-01-19T23:21:55Z</time>
      </trkpt>
      <trkpt lat="52.293120017275214" lon="7.974270014092326">
        <ele>83</ele>
        <time>2026-01-19T23:22:04Z</time>
      </trkpt>
      <trkpt lat="52.293190006166697" lon="7.975039975717664">
        <ele>83</ele>
        <time>2026-01-19T23:22:17Z</time>
      </trkpt>
      <trkpt lat="52.293239962309599" lon="7.975620003417134">
        <ele>79</ele>
        <time>2026-01-19T23:22:27Z</time>
      </trkpt>
      <trkpt lat="52.293180031701922" lon="7.976500019431114">
        <ele>79</ele>
        <time>2026-01-19T23:22:41Z</time>
      </trkpt>
      <trkpt lat="52.29306997731328" lon="7.977669965475798">
        <ele>76</ele>
        <time>2026-01-19T23:23:00Z</time>
      </trkpt>
      <trkpt lat="52.293039970099926" lon="7.978040026500821">
        <ele>76</ele>
        <time>2026-01-19T23:23:07Z</time>
      </trkpt>
      <trkpt lat="52.293039970099926" lon="7.978349989280105">
        <ele>76</ele>
        <time>2026-01-19T23:23:12Z</time>
      </trkpt>
      <trkpt lat="52.293039970099926" lon="7.978749973699451">
        <ele>76</ele>
        <time>2026-01-19T23:23:18Z</time>
      </trkpt>
      <trkpt lat="52.293050028383732" lon="7.979079969227314">
        <ele>74</ele>
        <time>2026-01-19T23:23:24Z</time>
      </trkpt>
      <trkpt lat="52.293109958991408" lon="7.979680029675365">
        <ele>74</ele>
        <time>2026-01-19T23:23:33Z</time>
      </trkpt>
      <trkpt lat="52.293169973418117" lon="7.980089988559485">
        <ele>74</ele>
        <time>2026-01-19T23:23:40Z</time>
      </trkpt>
      <trkpt lat="52.293280027806759" lon="7.980549987405539">
        <ele>70</ele>
        <time>2026-01-19T23:23:48Z</time>
      </trkpt>
      <trkpt lat="52.293380023911595" lon="7.980870008468628">
        <ele>70</ele>
        <time>2026-01-19T23:23:54Z</time>
      </trkpt>
      <trkpt lat="52.293480020016432" lon="7.981160022318363">
        <ele>70</ele>
        <time>2026-01-19T23:24:00Z</time>
      </trkpt>
      <trkpt lat="52.293589990586042" lon="7.981439977884293">
        <ele>70</ele>
        <time>2026-01-19T23:24:05Z</time>
      </trkpt>
      <trkpt lat="52.293729968369007" lon="7.981729991734028">
        <ele>67</ele>
        <time>2026-01-19T23:24:11Z</time>
      </trkpt>
      <trkpt lat="52.294300021603703" lon="7.982710003852844">
        <ele>67</ele>
        <time>2026-01-19T23:24:33Z</time>
      </trkpt>
      <trkpt lat="52.294619958847761" lon="7.983219958841801">
        <ele>63</ele>
        <time>2026-01-19T23:24:45Z</time>
      </trkpt>
      <trkpt lat="52.294849958270788" lon="7.983599994331598">
        <ele>63</ele>
        <time>2026-01-19T23:24:54Z</time>
      </trkpt>
      <trkpt lat="52.295420011505485" lon="7.984529966488481">
        <ele>64</ele>
        <time>2026-01-19T23:25:16Z</time>
      </trkpt>
      <trkpt lat="52.295599970966578" lon="7.984770024195314">
        <ele>64</ele>
        <time>2026-01-19T23:25:22Z</time>
      </trkpt>
      <trkpt lat="52.295780014246702" lon="7.984919976443052">
        <ele>64</ele>
        <time>2026-01-19T23:25:27Z</time>
      </trkpt>
      <trkpt lat="52.296040020883083" lon="7.985130026936531">
        <ele>64</ele>
        <time>2026-01-19T23:25:35Z</time>
      </trkpt>
      <trkpt lat="52.29624998755753" lon="7.985260030254722">
        <ele>64</ele>
        <time>2026-01-19T23:25:41Z</time>
      </trkpt>
      <trkpt lat="52.296330034732819" lon="7.985490029677749">
        <ele>64</ele>
        <time>2026-01-19T23:25:46Z</time>
      </trkpt>
      <trkpt lat="52.296530026942492" lon="7.985409982502461">
        <ele>64</ele>
        <time>2026-01-19T23:25:52Z</time>
      </trkpt>
      <trkpt lat="52.296860022470355" lon="7.985600000247359">
        <ele>63</ele>
        <time>2026-01-19T23:26:02Z</time>
      </trkpt>
      <trkpt lat="52.2970200330019" lon="7.985760010778904">
        <ele>63</ele>
        <time>2026-01-19T23:26:07Z</time>
      </trkpt>
      <trkpt lat="52.297280039638281" lon="7.986050024628639">
        <ele>63</ele>
        <time>2026-01-19T23:26:15Z</time>
      </trkpt>
      <trkpt lat="52.297459999099374" lon="7.986340038478375">
        <ele>61</ele>
        <time>2026-01-19T23:26:22Z</time>
      </trkpt>
      <trkpt lat="52.297550020739436" lon="7.98661001957953">
        <ele>61</ele>
        <time>2026-01-19T23:26:27Z</time>
      </trkpt>
      <trkpt lat="52.297740038484335" lon="7.986789979040623">
        <ele>61</ele>
        <time>2026-01-19T23:26:33Z</time>
      </trkpt>
      <trkpt lat="52.299859989434481" lon="7.987349973991513">
        <ele>61</ele>
        <time>2026-01-19T23:27:30Z</time>
      </trkpt>
      <trkpt lat="52.300119996070862" lon="7.987439995631576">
        <ele>61</ele>
        <time>2026-01-19T23:27:37Z</time>
      </trkpt>
      <trkpt lat="52.301709959283471" lon="7.98832998611033">
        <ele>62</ele>
        <time>2026-01-19T23:28:22Z</time>
      </trkpt>
      <trkpt lat="52.302589975297451" lon="7.988840024918318">
        <ele>62</ele>
        <time>2026-01-19T23:28:47Z</time>
      </trkpt>
      <trkpt lat="52.302879989147186" lon="7.989000035449863">
        <ele>62</ele>
        <time>2026-01-19T23:28:55Z</time>
      </trkpt>
      <trkpt lat="52.303139995783567" lon="7.989159962162376">
        <ele>61</ele>
        <time>2026-01-19T23:29:03Z</time>
      </trkpt>
      <trkpt lat="52.303400002419949" lon="7.989330030977726">
        <ele>61</ele>
        <time>2026-01-19T23:29:10Z</time>
      </trkpt>
      <trkpt lat="52.304389989003539" lon="7.989890025928617">
        <ele>62</ele>
        <time>2026-01-19T23:29:38Z</time>
      </trkpt>
      <trkpt lat="52.30464999563992" lon="7.990039978176355">
        <ele>62</ele>
        <time>2026-01-19T23:29:46Z</time>
      </trkpt>
      <trkpt lat="52.305070012807846" lon="7.990280035883188">
        <ele>62</ele>
        <time>2026-01-19T23:29:57Z</time>
      </trkpt>
      <trkpt lat="52.305370001122355" lon="7.990439962595701">
        <ele>62</ele>
        <time>2026-01-19T23:30:06Z</time>
      </trkpt>
      <trkpt lat="52.305760011076927" lon="7.99065001308918">
        <ele>62</ele>
        <time>2026-01-19T23:30:17Z</time>
      </trkpt>
      <trkpt lat="52.306139962747693" lon="7.990840030834079">
        <ele>62</ele>
        <time>2026-01-19T23:30:27Z</time>
      </trkpt>
      <trkpt lat="52.306499965488911" lon="7.991129960864782">
        <ele>62</ele>
        <time>2026-01-19T23:30:38Z</time>
      </trkpt>
      <trkpt lat="52.306559979915619" lon="7.991619966924191">
        <ele>62</ele>
        <time>2026-01-19T23:30:47Z</time>
      </trkpt>
      <trkpt lat="52.306420002132654" lon="7.992079965770245">
        <ele>62</ele>
        <time>2026-01-19T23:30:55Z</time>
      </trkpt>
      <trkpt lat="52.306280024349689" lon="7.992380037903786">
        <ele>62</ele>
        <time>2026-01-19T23:31:01Z</time>
      </trkpt>
      <trkpt lat="52.305660014972091" lon="7.993540009483695">
        <ele>61</ele>
        <time>2026-01-19T23:31:26Z</time>
      </trkpt>
      <trkpt lat="52.30540000833571" lon="7.994020041078329">
        <ele>61</ele>
        <time>2026-01-19T23:31:37Z</time>
      </trkpt>
      <trkpt lat="52.305249972268939" lon="7.994309971109033">
        <ele>61</ele>
        <time>2026-01-19T23:31:43Z</time>
      </trkpt>
      <trkpt lat="52.304480010643601" lon="7.995760040357709">
        <ele>61</ele>
        <time>2026-01-19T23:32:14Z</time>
      </trkpt>
      <trkpt lat="52.304289992898703" lon="7.996109984815121">
        <ele>61</ele>
        <time>2026-01-19T23:32:22Z</time>
      </trkpt>
      <trkpt lat="52.304029986262321" lon="7.996599990874529">
        <ele>58</ele>
        <time>2026-01-19T23:32:33Z</time>
      </trkpt>
      <trkpt lat="52.30376997962594" lon="7.997080022469163">
        <ele>58</ele>
        <time>2026-01-19T23:32:43Z</time>
      </trkpt>
      <trkpt lat="52.303609969094396" lon="7.997380010783672">
        <ele>59</ele>
        <time>2026-01-19T23:32:50Z</time>
      </trkpt>
      <trkpt lat="52.303490024060011" lon="7.997600035741925">
        <ele>59</ele>
        <time>2026-01-19T23:32:55Z</time>
      </trkpt>
      <trkpt lat="52.303179977461696" lon="7.99819003790617">
        <ele>59</ele>
        <time>2026-01-19T23:33:07Z</time>
      </trkpt>
      <trkpt lat="52.30277999304235" lon="7.998950025066733">
        <ele>60</ele>
        <time>2026-01-19T23:33:24Z</time>
      </trkpt>
      <trkpt lat="52.302510011941195" lon="7.999450005590916">
        <ele>60</ele>
        <time>2026-01-19T23:33:35Z</time>
      </trkpt>
      <trkpt lat="52.302199965342879" lon="8.00004000775516">
        <ele>60</ele>
        <time>2026-01-19T23:33:47Z</time>
      </trkpt>
      <trkpt lat="52.302080020308495" lon="8.000260032713413">
        <ele>60</ele>
        <time>2026-01-19T23:33:52Z</time>
      </trkpt>
      <trkpt lat="52.301729992032051" lon="8.000939972698689">
        <ele>60</ele>
        <time>2026-01-19T23:34:07Z</time>
      </trkpt>
      <trkpt lat="52.301420029252768" lon="8.001510025933385">
        <ele>63</ele>
        <time>2026-01-19T23:34:19Z</time>
      </trkpt>
      <trkpt lat="52.301260018721223" lon="8.001819988712668">
        <ele>63</ele>
        <time>2026-01-19T23:34:26Z</time>
      </trkpt>
      <trkpt lat="52.301070000976324" lon="8.002149984240532">
        <ele>63</ele>
        <time>2026-01-19T23:34:33Z</time>
      </trkpt>
      <trkpt lat="52.300770012661815" lon="8.002720037475228">
        <ele>62</ele>
        <time>2026-01-19T23:34:45Z</time>
      </trkpt>
      <trkpt lat="52.300449991598725" lon="8.003299981355667">
        <ele>62</ele>
        <time>2026-01-19T23:34:58Z</time>
      </trkpt>
      <trkpt lat="52.300329962745309" lon="8.0035400390625">
        <ele>61</ele>
        <time>2026-01-19T23:35:03Z</time>
      </trkpt>
      <trkpt lat="52.300119996070862" lon="8.003919990733266">
        <ele>61</ele>
        <time>2026-01-19T23:35:12Z</time>
      </trkpt>
      <trkpt lat="52.299999967217445" lon="8.004170022904873">
        <ele>61</ele>
        <time>2026-01-19T23:35:17Z</time>
      </trkpt>
      <trkpt lat="52.299680029973388" lon="8.004769999533892">
        <ele>62</ele>
        <time>2026-01-19T23:35:30Z</time>
      </trkpt>
      <trkpt lat="52.299380041658878" lon="8.005329994484782">
        <ele>62</ele>
        <time>2026-01-19T23:35:42Z</time>
      </trkpt>
      <trkpt lat="52.298879977315664" lon="8.006259966641665">
        <ele>62</ele>
        <time>2026-01-19T23:36:02Z</time>
      </trkpt>
      <trkpt lat="52.298700017854571" lon="8.006579987704754">
        <ele>62</ele>
        <time>2026-01-19T23:36:09Z</time>
      </trkpt>
      <trkpt lat="52.298459960147738" lon="8.007030012086034">
        <ele>62</ele>
        <time>2026-01-19T23:36:19Z</time>
      </trkpt>
      <trkpt lat="52.298340015113354" lon="8.007260011509061">
        <ele>64</ele>
        <time>2026-01-19T23:36:24Z</time>
      </trkpt>
      <trkpt lat="52.298110015690327" lon="8.007680028676987">
        <ele>64</ele>
        <time>2026-01-19T23:36:33Z</time>
      </trkpt>
      <trkpt lat="52.297940030694008" lon="8.007999965921044">
        <ele>64</ele>
        <time>2026-01-19T23:36:40Z</time>
      </trkpt>
      <trkpt lat="52.297799969092011" lon="8.008280005306006">
        <ele>63</ele>
        <time>2026-01-19T23:36:46Z</time>
      </trkpt>
      <trkpt lat="52.297629984095693" lon="8.008600026369095">
        <ele>63</ele>
        <time>2026-01-19T23:36:53Z</time>
      </trkpt>
      <trkpt lat="52.297120029106736" lon="8.009560005739331">
        <ele>64</ele>
        <time>2026-01-19T23:37:14Z</time>
      </trkpt>
      <trkpt lat="52.296879971399903" lon="8.010020004585385">
        <ele>64</ele>
        <time>2026-01-19T23:37:24Z</time>
      </trkpt>
      <trkpt lat="52.29670001193881" lon="8.010340025648475">
        <ele>64</ele>
        <time>2026-01-19T23:37:31Z</time>
      </trkpt>
      <trkpt lat="52.296349983662367" lon="8.010989958420396">
        <ele>64</ele>
        <time>2026-01-19T23:37:45Z</time>
      </trkpt>
      <trkpt lat="52.29614001698792" lon="8.011349961161614">
        <ele>64</ele>
        <time>2026-01-19T23:37:53Z</time>
      </trkpt>
      <trkpt lat="52.295970031991601" lon="8.011579960584641">
        <ele>64</ele>
        <time>2026-01-19T23:37:59Z</time>
      </trkpt>
      <trkpt lat="52.295810021460056" lon="8.011750029399991">
        <ele>64</ele>
        <time>2026-01-19T23:38:04Z</time>
      </trkpt>
      <trkpt lat="52.295620003715158" lon="8.011929988861084">
        <ele>64</ele>
        <time>2026-01-19T23:38:10Z</time>
      </trkpt>
      <trkpt lat="52.295339964330196" lon="8.012189995497465">
        <ele>64</ele>
        <time>2026-01-19T23:38:18Z</time>
      </trkpt>
      <trkpt lat="52.295150030404329" lon="8.012389987707138">
        <ele>64</ele>
        <time>2026-01-19T23:38:25Z</time>
      </trkpt>
      <trkpt lat="52.294960012659431" lon="8.012680001556873">
        <ele>64</ele>
        <time>2026-01-19T23:38:31Z</time>
      </trkpt>
      <trkpt lat="52.294779969379306" lon="8.012979989871383">
        <ele>64</ele>
        <time>2026-01-19T23:38:38Z</time>
      </trkpt>
      <trkpt lat="52.294300021603703" lon="8.013750035315752">
        <ele>64</ele>
        <time>2026-01-19T23:38:56Z</time>
      </trkpt>
      <trkpt lat="52.294000033289194" lon="8.014259990304709">
        <ele>65</ele>
        <time>2026-01-19T23:39:08Z</time>
      </trkpt>
      <trkpt lat="52.292809970676899" lon="8.016160000115633">
        <ele>65</ele>
        <time>2026-01-19T23:39:52Z</time>
      </trkpt>
      <trkpt lat="52.292349971830845" lon="8.016940020024777">
        <ele>65</ele>
        <time>2026-01-19T23:40:10Z</time>
      </trkpt>
      <trkpt lat="52.292149979621172" lon="8.017279990017414">
        <ele>64</ele>
        <time>2026-01-19T23:40:18Z</time>
      </trkpt>
      <trkpt lat="52.291879998520017" lon="8.017749963328242">
        <ele>64</ele>
        <time>2026-01-19T23:40:28Z</time>
      </trkpt>
      <trkpt lat="52.291680006310344" lon="8.018079958856106">
        <ele>64</ele>
        <time>2026-01-19T23:40:36Z</time>
      </trkpt>
      <trkpt lat="52.291510021314025" lon="8.018359998241067">
        <ele>64</ele>
        <time>2026-01-19T23:40:42Z</time>
      </trkpt>
      <trkpt lat="52.291269963607192" lon="8.018729975447059">
        <ele>64</ele>
        <time>2026-01-19T23:40:51Z</time>
      </trkpt>
      <trkpt lat="52.290500001981854" lon="8.020039983093739">
        <ele>64</ele>
        <time>2026-01-19T23:41:21Z</time>
      </trkpt>
      <trkpt lat="52.290369998663664" lon="8.020260008051992">
        <ele>64</ele>
        <time>2026-01-19T23:41:26Z</time>
      </trkpt>
      <trkpt lat="52.290219962596893" lon="8.020520014688373">
        <ele>64</ele>
        <time>2026-01-19T23:41:32Z</time>
      </trkpt>
      <trkpt lat="52.289719982072711" lon="8.021349990740418">
        <ele>67</ele>
        <time>2026-01-19T23:41:51Z</time>
      </trkpt>
      <trkpt lat="52.289470033720136" lon="8.021770007908344">
        <ele>67</ele>
        <time>2026-01-19T23:42:00Z</time>
      </trkpt>
      <trkpt lat="52.289129979908466" lon="8.022330002859235">
        <ele>69</ele>
        <time>2026-01-19T23:42:13Z</time>
      </trkpt>
      <trkpt lat="52.288990002125502" lon="8.022550027817488">
        <ele>69</ele>
        <time>2026-01-19T23:42:18Z</time>
      </trkpt>
      <trkpt lat="52.288309978321195" lon="8.023700024932623">
        <ele>69</ele>
        <time>2026-01-19T23:42:44Z</time>
      </trkpt>
      <trkpt lat="52.287919968366623" lon="8.024399997666478">
        <ele>68</ele>
        <time>2026-01-19T23:43:00Z</time>
      </trkpt>
      <trkpt lat="52.287670020014048" lon="8.024869970977306">
        <ele>68</ele>
        <time>2026-01-19T23:43:10Z</time>
      </trkpt>
      <trkpt lat="52.287519983947277" lon="8.025169959291816">
        <ele>68</ele>
        <time>2026-01-19T23:43:16Z</time>
      </trkpt>
      <trkpt lat="52.28728998452425" lon="8.025700030848384">
        <ele>67</ele>
        <time>2026-01-19T23:43:27Z</time>
      </trkpt>
      <trkpt lat="52.286899974569678" lon="8.026739973574877">
        <ele>67</ele>
        <time>2026-01-19T23:43:47Z</time>
      </trkpt>
      <trkpt lat="52.286780029535294" lon="8.027059994637966">
        <ele>67</ele>
        <time>2026-01-19T23:43:53Z</time>
      </trkpt>
      <trkpt lat="52.286650026217103" lon="8.027419997379184">
        <ele>67</ele>
        <time>2026-01-19T23:44:00Z</time>
      </trkpt>
      <trkpt lat="52.286539971828461" lon="8.027719985693693">
        <ele>67</ele>
        <time>2026-01-19T23:44:06Z</time>
      </trkpt>
      <trkpt lat="52.286390019580722" lon="8.027889970690012">
        <ele>67</ele>
        <time>2026-01-19T23:44:11Z</time>
      </trkpt>
      <trkpt lat="52.286360012367368" lon="8.027989966794848">
        <ele>67</ele>
        <time>2026-01-19T23:44:13Z</time>
      </trkpt>
    </trkseg>
  </trk>

</gpx>